Observation data for Lomax on 02/16/2018      Previous  Date  Next       Current Mesonet Observations  Soil Data  Daily Summary Page  Observations in Plain Language
KLO1 160600Z 21007KT 14/10 A3008 RMK A01 T01400101  RH  078%=      5-min Rain = 0
KLO1 160601Z 21007KT 14/10 A3008 RMK A01 T01400101  RH  078%=      5-min Rain = 0
KLO1 160602Z 21007KT 14/10 A3008 RMK A01 T01400102  RH  078%=      5-min Rain = 0
KLO1 160603Z 21007KT 14/10 A3008 RMK A01 T01400102  RH  078%=      5-min Rain = 0
KLO1 160604Z 21007KT 14/10 A3008 RMK A01 T01410103  RH  078%=      5-min Rain = 0
KLO1 160605Z 20007KT 14/10 A3008 RMK A01 T01410103  RH  078%=      5-min Rain = 0
KLO1 160606Z 20007KT 14/10 A3008 RMK A01 T01410103  RH  078%=      5-min Rain = 0
KLO1 160607Z 20007KT 14/10 A3008 RMK A01 T01410103  RH  078%=      5-min Rain = 0
KLO1 160608Z 20007KT 14/10 A3008 RMK A01 T01410104  RH  078%=      5-min Rain = 0
KLO1 160609Z 20007KT 14/10 A3008 RMK A01 T01420104  RH  078%=      5-min Rain = 0
KLO1 160610Z 20008KT 14/11 A3008 RMK A01 T01430105  RH  078%=      5-min Rain = 0
KLO1 160611Z 20008KT 14/11 A3008 RMK A01 T01430105  RH  078%=      5-min Rain = 0
KLO1 160612Z 19008KT 14/11 A3008 RMK A01 T01440106  RH  078%=      5-min Rain = 0
KLO1 160613Z 20009KT 15/11 A3008 RMK A01 T01450106  RH  077%=      5-min Rain = 0
KLO1 160614Z 21009KT 15/11 A3008 RMK A01 T01460107  RH  077%=      5-min Rain = 0
KLO1 160615Z 21008KT 15/11 A3008 RMK A01 T01470107  RH  077%=      5-min Rain = 0
KLO1 160616Z 21009KT 15/11 A3008 RMK A01 T01470107  RH  077%=      5-min Rain = 0
KLO1 160617Z 21009KT 15/11 A3008 RMK A01 T01480108  RH  077%=      5-min Rain = 0
KLO1 160618Z 21009KT 15/11 A3008 RMK A01 T01480108  RH  077%=      5-min Rain = 0
KLO1 160619Z 21009KT 15/11 A3008 RMK A01 T01490109  RH  077%=      5-min Rain = 0
KLO1 160620Z 21009KT 15/11 A3008 RMK A01 T01500110  RH  077%=      5-min Rain = 0
KLO1 160621Z 21009KT 15/11 A3008 RMK A01 T01500111  RH  077%=      5-min Rain = 0
KLO1 160622Z 21009KT 15/11 A3008 RMK A01 T01510112  RH  077%=      5-min Rain = 0
KLO1 160623Z 21009KT 15/11 A3008 RMK A01 T01520112  RH  077%=      5-min Rain = 0
KLO1 160624Z 21009KT 15/11 A3008 RMK A01 T01530113  RH  077%=      5-min Rain = 0
KLO1 160625Z 21009KT 15/11 A3008 RMK A01 T01540113  RH  077%=      5-min Rain = 0
KLO1 160626Z 21009KT 15/11 A3008 RMK A01 T01540114  RH  077%=      5-min Rain = 0
KLO1 160627Z 21008KT 16/11 A3008 RMK A01 T01550114  RH  077%=      5-min Rain = 0
KLO1 160628Z 21009KT 15/11 A3008 RMK A01 T01540114  RH  077%=      5-min Rain = 0
KLO1 160629Z 20009KT 16/11 A3008 RMK A01 T01550114  RH  077%=      5-min Rain = 0
KLO1 160630Z 20009KT 16/11 A3009 RMK A01 T01550114  RH  077%=      5-min Rain = 0
KLO1 160631Z 20009KT 16/11 A3009 RMK A01 T01550114  RH  077%=      5-min Rain = 0
KLO1 160632Z 20009KT 16/12 A3009 RMK A01 T01550115  RH  077%=      5-min Rain = 0
KLO1 160633Z 20008KT 15/11 A3009 RMK A01 T01540114  RH  077%=      5-min Rain = 0
KLO1 160634Z 20008KT 15/11 A3009 RMK A01 T01540114  RH  077%=      5-min Rain = 0
KLO1 160635Z 20008KT 15/11 A3009 RMK A01 T01540113  RH  077%=      5-min Rain = 0
KLO1 160636Z 20009KT 15/11 A3009 RMK A01 T01530113  RH  077%=      5-min Rain = 0
KLO1 160637Z 20008KT 15/11 A3009 RMK A01 T01530112  RH  077%=      5-min Rain = 0
KLO1 160638Z 20008KT 15/11 A3009 RMK A01 T01530112  RH  077%=      5-min Rain = 0
KLO1 160639Z 20008KT 15/11 A3009 RMK A01 T01520112  RH  077%=      5-min Rain = 0
KLO1 160640Z 21008KT 15/11 A3009 RMK A01 T01520112  RH  077%=      5-min Rain = 0
KLO1 160641Z 21008KT 15/11 A3009 RMK A01 T01520113  RH  077%=      5-min Rain = 0
KLO1 160642Z 20008KT 15/11 A3009 RMK A01 T01520113  RH  077%=      5-min Rain = 0
KLO1 160643Z 21008KT 15/11 A3009 RMK A01 T01530114  RH  078%=      5-min Rain = 0
KLO1 160644Z 21009KT 15/11 A3009 RMK A01 T01530114  RH  078%=      5-min Rain = 0
KLO1 160645Z 21009KT 15/11 A3009 RMK A01 T01530114  RH  078%=      5-min Rain = 0
KLO1 160646Z 21009KT 15/12 A3009 RMK A01 T01530115  RH  078%=      5-min Rain = 0
KLO1 160647Z 21010KT 15/12 A3009 RMK A01 T01540115  RH  078%=      5-min Rain = 0
KLO1 160648Z 21009KT 15/12 A3009 RMK A01 T01540115  RH  078%=      5-min Rain = 0
KLO1 160649Z 21009KT 15/12 A3009 RMK A01 T01540116  RH  078%=      5-min Rain = 0
KLO1 160650Z 21008KT 16/12 A3009 RMK A01 T01550116  RH  078%=      5-min Rain = 0
KLO1 160651Z 21009KT 16/12 A3009 RMK A01 T01550116  RH  078%=      5-min Rain = 0
KLO1 160652Z 21008KT 16/12 A3009 RMK A01 T01550116  RH  078%=      5-min Rain = 0
KLO1 160653Z 20009KT 16/12 A3009 RMK A01 T01550116  RH  078%=      5-min Rain = 0
KLO1 160654Z 20009KT 16/12 A3009 RMK A01 T01550116  RH  078%=      5-min Rain = 0
KLO1 160655Z 20009KT 16/12 A3009 RMK A01 T01550117  RH  078%=      5-min Rain = 0
KLO1 160656Z 20010KT 16/12 A3009 RMK A01 T01550117  RH  078%=      5-min Rain = 0
KLO1 160657Z 20010KT 16/12 A3009 RMK A01 T01550117  RH  078%=      5-min Rain = 0
KLO1 160658Z 20009KT 16/12 A3009 RMK A01 T01550117  RH  078%=      5-min Rain = 0
KLO1 160659Z 20008KT 16/12 A3009 RMK A01 T01560117  RH  078%=      5-min Rain = 0
KLO1 160700Z 20009KT 16/12 A3009 RMK A01 T01560117  RH  078%=      5-min Rain = 0
KLO1 160701Z 20009KT 16/12 A3009 RMK A01 T01550117  RH  078%=      5-min Rain = 0
KLO1 160702Z 20007KT 16/12 A3009 RMK A01 T01550117  RH  078%=      5-min Rain = 0
KLO1 160703Z 20007KT 16/12 A3009 RMK A01 T01560117  RH  078%=      5-min Rain = 0
KLO1 160704Z 21006KT 16/12 A3009 RMK A01 T01550117  RH  078%=      5-min Rain = 0
KLO1 160705Z 20007KT 16/12 A3009 RMK A01 T01560117  RH  078%=      5-min Rain = 0
KLO1 160706Z 20007KT 16/12 A3009 RMK A01 T01550117  RH  078%=      5-min Rain = 0
KLO1 160707Z 20008KT 16/12 A3009 RMK A01 T01550117  RH  078%=      5-min Rain = 0
KLO1 160708Z 21008KT 16/12 A3009 RMK A01 T01550117  RH  078%=      5-min Rain = 0
KLO1 160709Z 20008KT 16/12 A3009 RMK A01 T01550117  RH  078%=      5-min Rain = 0
KLO1 160710Z 20008KT 16/12 A3009 RMK A01 T01550118  RH  078%=      5-min Rain = 0
KLO1 160711Z 20008KT 16/12 A3009 RMK A01 T01550118  RH  078%=      5-min Rain = 0
KLO1 160712Z 20008KT 16/12 A3009 RMK A01 T01550118  RH  078%=      5-min Rain = 0
KLO1 160713Z 20007KT 16/12 A3009 RMK A01 T01550117  RH  078%=      5-min Rain = 0
KLO1 160714Z 20007KT 16/12 A3009 RMK A01 T01550118  RH  079%=      5-min Rain = 0
KLO1 160715Z 21007KT 16/12 A3009 RMK A01 T01550118  RH  079%=      5-min Rain = 0
KLO1 160716Z 20008KT 16/12 A3009 RMK A01 T01550118  RH  079%=      5-min Rain = 0
KLO1 160717Z 20008KT 16/12 A3009 RMK A01 T01550118  RH  079%=      5-min Rain = 0
KLO1 160718Z 20009KT 16/12 A3009 RMK A01 T01550118  RH  079%=      5-min Rain = 0
KLO1 160719Z 20008KT 16/12 A3009 RMK A01 T01550118  RH  079%=      5-min Rain = 0
KLO1 160720Z 20008KT 16/12 A3009 RMK A01 T01550118  RH  079%=      5-min Rain = 0
KLO1 160721Z 21008KT 16/12 A3009 RMK A01 T01550118  RH  079%=      5-min Rain = 0
KLO1 160722Z 21008KT 15/12 A3009 RMK A01 T01540118  RH  079%=      5-min Rain = 0
KLO1 160723Z 21008KT 15/12 A3009 RMK A01 T01540118  RH  079%=      5-min Rain = 0
KLO1 160724Z 21008KT 15/12 A3009 RMK A01 T01540118  RH  079%=      5-min Rain = 0
KLO1 160725Z 20008KT 15/12 A3009 RMK A01 T01540118  RH  079%=      5-min Rain = 0
KLO1 160726Z 20008KT 15/12 A3009 RMK A01 T01540118  RH  079%=      5-min Rain = 0
KLO1 160727Z 20008KT 15/12 A301 RMK A01 T01540118  RH  079%=      5-min Rain = 0
KLO1 160728Z 21009KT 15/12 A301 RMK A01 T01540118  RH  079%=      5-min Rain = 0
KLO1 160729Z 21008KT 15/12 A301 RMK A01 T01540118  RH  079%=      5-min Rain = 0
KLO1 160730Z 21009KT 15/12 A301 RMK A01 T01540118  RH  079%=      5-min Rain = 0
KLO1 160731Z 21009KT 15/12 A301 RMK A01 T01540118  RH  079%=      5-min Rain = 0
KLO1 160732Z 20008KT 15/12 A3009 RMK A01 T01540118  RH  079%=      5-min Rain = 0
KLO1 160733Z 21008KT 15/12 A3009 RMK A01 T01540118  RH  079%=      5-min Rain = 0
KLO1 160734Z 21008KT 15/12 A301 RMK A01 T01540118  RH  079%=      5-min Rain = 0
KLO1 160735Z 21008KT 15/12 A301 RMK A01 T01540118  RH  079%=      5-min Rain = 0
KLO1 160736Z 21008KT 15/12 A301 RMK A01 T01540118  RH  079%=      5-min Rain = 0
KLO1 160737Z 21008KT 15/12 A301 RMK A01 T01540119  RH  079%=      5-min Rain = 0
KLO1 160738Z 21008KT 15/12 A301 RMK A01 T01540119  RH  079%=      5-min Rain = 0
KLO1 160739Z 21007KT 15/12 A301 RMK A01 T01540119  RH  079%=      5-min Rain = 0
KLO1 160740Z 21007KT 15/12 A301 RMK A01 T01540119  RH  079%=      5-min Rain = 0
KLO1 160741Z 21007KT 15/12 A301 RMK A01 T01540118  RH  079%=      5-min Rain = 0
KLO1 160742Z 20007KT 15/12 A301 RMK A01 T01540119  RH  079%=      5-min Rain = 0
KLO1 160743Z 21008KT 15/12 A301 RMK A01 T01540118  RH  079%=      5-min Rain = 0
KLO1 160744Z 20008KT 15/12 A301 RMK A01 T01540119  RH  080%=      5-min Rain = 0
KLO1 160745Z 21008KT 15/12 A301 RMK A01 T01540119  RH  080%=      5-min Rain = 0
KLO1 160746Z 20008KT 15/12 A301 RMK A01 T01540119  RH  080%=      5-min Rain = 0
KLO1 160747Z 21008KT 16/12 A301 RMK A01 T01550119  RH  079%=      5-min Rain = 0
KLO1 160748Z 20008KT 16/12 A301 RMK A01 T01550119  RH  079%=      5-min Rain = 0
KLO1 160749Z 21008KT 16/12 A301 RMK A01 T01550119  RH  079%=      5-min Rain = 0
KLO1 160750Z 21007KT 16/12 A301 RMK A01 T01550119  RH  079%=      5-min Rain = 0
KLO1 160751Z 21007KT 16/12 A3011 RMK A01 T01550119  RH  079%=      5-min Rain = 0
KLO1 160752Z 21007KT 16/12 A3011 RMK A01 T01550119  RH  079%=      5-min Rain = 0
KLO1 160753Z 21007KT 16/12 A3011 RMK A01 T01550120  RH  079%=      5-min Rain = 0
KLO1 160754Z 21007KT 16/12 A301 RMK A01 T01550119  RH  079%=      5-min Rain = 0
KLO1 160755Z 20006KT 16/12 A301 RMK A01 T01550119  RH  079%=      5-min Rain = 0
KLO1 160756Z 21006KT 16/12 A301 RMK A01 T01550119  RH  079%=      5-min Rain = 0
KLO1 160757Z 21006KT 15/12 A3011 RMK A01 T01540119  RH  080%=      5-min Rain = 0
KLO1 160758Z 21006KT 15/12 A3011 RMK A01 T01540119  RH  080%=      5-min Rain = 0
KLO1 160759Z 21006KT 15/12 A3011 RMK A01 T01540119  RH  080%=      5-min Rain = 0
KLO1 160800Z 20005KT 15/12 A3011 RMK A01 T01540120  RH  080%=      5-min Rain = 0
KLO1 160801Z 20006KT 15/12 A3011 RMK A01 T01540120  RH  080%=      5-min Rain = 0
KLO1 160802Z 20006KT 15/12 A3011 RMK A01 T01540120  RH  080%=      5-min Rain = 0
KLO1 160803Z 20005KT 15/12 A3011 RMK A01 T01540120  RH  080%=      5-min Rain = 0
KLO1 160804Z 20006KT 15/12 A3011 RMK A01 T01540120  RH  080%=      5-min Rain = 0
KLO1 160805Z 20006KT 15/12 A3011 RMK A01 T01540120  RH  080%=      5-min Rain = 0
KLO1 160806Z 20006KT 15/12 A3011 RMK A01 T01540119  RH  080%=      5-min Rain = 0
KLO1 160807Z 20006KT 15/12 A3011 RMK A01 T01540119  RH  080%=      5-min Rain = 0
KLO1 160808Z 20006KT 15/12 A3011 RMK A01 T01540120  RH  080%=      5-min Rain = 0
KLO1 160809Z 21006KT 15/12 A3011 RMK A01 T01540119  RH  080%=      5-min Rain = 0
KLO1 160810Z 21005KT 15/12 A3011 RMK A01 T01540119  RH  080%=      5-min Rain = 0
KLO1 160811Z 21005KT 15/12 A3011 RMK A01 T01540120  RH  080%=      5-min Rain = 0
KLO1 160812Z 22005KT 15/12 A3011 RMK A01 T01540120  RH  080%=      5-min Rain = 0
KLO1 160813Z 22005KT 15/12 A3011 RMK A01 T01540120  RH  080%=      5-min Rain = 0
KLO1 160814Z 22006KT 15/12 A3011 RMK A01 T01540120  RH  080%=      5-min Rain = 0
KLO1 160815Z 22005KT 15/12 A3011 RMK A01 T01530120  RH  080%=      5-min Rain = 0
KLO1 160816Z 22006KT 15/12 A3011 RMK A01 T01530120  RH  080%=      5-min Rain = 0
KLO1 160817Z 22006KT 15/12 A3011 RMK A01 T01530120  RH  080%=      5-min Rain = 0
KLO1 160818Z 22005KT 15/12 A3011 RMK A01 T01530120  RH  080%=      5-min Rain = 0
KLO1 160819Z 22006KT 15/12 A3011 RMK A01 T01530120  RH  080%=      5-min Rain = 0
KLO1 160820Z 22006KT 15/12 A3011 RMK A01 T01530120  RH  081%=      5-min Rain = 0
KLO1 160821Z 22006KT 15/12 A3011 RMK A01 T01530120  RH  081%=      5-min Rain = 0
KLO1 160822Z 22006KT 15/12 A3011 RMK A01 T01530120  RH  081%=      5-min Rain = 0
KLO1 160823Z 22007KT 15/12 A3011 RMK A01 T01530120  RH  081%=      5-min Rain = 0
KLO1 160824Z 22007KT 15/12 A3011 RMK A01 T01530119  RH  081%=      5-min Rain = 0
KLO1 160825Z 22007KT 15/12 A3011 RMK A01 T01530120  RH  081%=      5-min Rain = 0
KLO1 160826Z 22007KT 15/12 A3011 RMK A01 T01530120  RH  081%=      5-min Rain = 0
KLO1 160827Z 22007KT 15/12 A3011 RMK A01 T01530120  RH  081%=      5-min Rain = 0
KLO1 160828Z 22007KT 15/12 A3012 RMK A01 T01530120  RH  081%=      5-min Rain = 0
KLO1 160829Z 22007KT 15/12 A3012 RMK A01 T01520119  RH  081%=      5-min Rain = 0
KLO1 160830Z 22007KT 15/12 A3012 RMK A01 T01520119  RH  080%=      5-min Rain = 0
KLO1 160831Z 22007KT 15/12 A3012 RMK A01 T01520119  RH  081%=      5-min Rain = 0
KLO1 160832Z 22007KT 15/12 A3012 RMK A01 T01520119  RH  081%=      5-min Rain = 0
KLO1 160833Z 21006KT 15/12 A3012 RMK A01 T01520119  RH  081%=      5-min Rain = 0
KLO1 160834Z 21006KT 15/12 A3012 RMK A01 T01520119  RH  081%=      5-min Rain = 0
KLO1 160835Z 21007KT 15/12 A3012 RMK A01 T01520119  RH  081%=      5-min Rain = 0
KLO1 160836Z 22007KT 15/12 A3012 RMK A01 T01520119  RH  081%=      5-min Rain = 0
KLO1 160837Z 22006KT 15/12 A3012 RMK A01 T01520120  RH  081%=      5-min Rain = 0
KLO1 160838Z 22007KT 15/12 A3012 RMK A01 T01520120  RH  081%=      5-min Rain = 0
KLO1 160839Z 22007KT 15/12 A3012 RMK A01 T01520120  RH  081%=      5-min Rain = 0
KLO1 160840Z 23007KT 15/12 A3012 RMK A01 T01520120  RH  081%=      5-min Rain = 0
KLO1 160841Z 23007KT 15/12 A3012 RMK A01 T01520120  RH  081%=      5-min Rain = 0
KLO1 160842Z 23007KT 15/12 A3012 RMK A01 T01520120  RH  081%=      5-min Rain = 0
KLO1 160843Z 22007KT 15/12 A3012 RMK A01 T01530120  RH  081%=      5-min Rain = 0
KLO1 160844Z 22007KT 15/12 A3012 RMK A01 T01530121  RH  081%=      5-min Rain = 0
KLO1 160845Z 22006KT 15/12 A3012 RMK A01 T01530122  RH  081%=      5-min Rain = 0
KLO1 160846Z 23006KT 15/12 A3012 RMK A01 T01540121  RH  081%=      5-min Rain = 0
KLO1 160847Z 24006KT 15/12 A3012 RMK A01 T01540121  RH  081%=      5-min Rain = 0
KLO1 160848Z 27005KT 15/12 A3013 RMK A01 T01530121  RH  081%=      5-min Rain = 0
KLO1 160849Z 27005KT 15/12 A3013 RMK A01 T01530121  RH  081%=      5-min Rain = 0
KLO1 160850Z 27004KT 15/12 A3013 RMK A01 T01530121  RH  081%=      5-min Rain = 0
KLO1 160851Z 25005KT 15/12 A3013 RMK A01 T01530121  RH  081%=      5-min Rain = 0
KLO1 160852Z 25006KT 15/12 A3013 RMK A01 T01530121  RH  081%=      5-min Rain = 0
KLO1 160853Z 25005KT 15/12 A3013 RMK A01 T01540122  RH  081%=      5-min Rain = 0
KLO1 160854Z 26005KT 15/12 A3013 RMK A01 T01540121  RH  081%=      5-min Rain = 0
KLO1 160855Z 26005KT 15/12 A3013 RMK A01 T01540121  RH  081%=      5-min Rain = 0
KLO1 160856Z 26005KT 15/12 A3013 RMK A01 T01540121  RH  081%=      5-min Rain = 0
KLO1 160857Z 26005KT 15/12 A3013 RMK A01 T01540120  RH  081%=      5-min Rain = 0
KLO1 160858Z 26005KT 15/12 A3013 RMK A01 T01530120  RH  081%=      5-min Rain = 0
KLO1 160859Z 31005KT 15/12 A3013 RMK A01 T01530121  RH  081%=      5-min Rain = 0
KLO1 160900Z 00008KT 15/12 A3014 RMK A01 T01530121  RH  081%=      5-min Rain = 0
KLO1 160901Z 00010KT 15/12 A3014 RMK A01 T01530120  RH  081%=      5-min Rain = 0
KLO1 160902Z 35007KT 15/12 A3014 RMK A01 T01530120  RH  081%=      5-min Rain = 0
KLO1 160903Z 34005KT 15/12 A3014 RMK A01 T01530120  RH  081%=      5-min Rain = 0
KLO1 160904Z 35006KT 15/12 A3014 RMK A01 T01530120  RH  081%=      5-min Rain = 0
KLO1 160905Z 35008KT 15/12 A3014 RMK A01 T01530119  RH  080%=      5-min Rain = 0
KLO1 160906Z 32006KT 15/12 A3014 RMK A01 T01530120  RH  080%=      5-min Rain = 0
KLO1 160907Z 32006KT 15/12 A3014 RMK A01 T01530119  RH  080%=      5-min Rain = 0
KLO1 160908Z 33007KT 15/12 A3014 RMK A01 T01530119  RH  080%=      5-min Rain = 0
KLO1 160909Z 31005KT 15/12 A3014 RMK A01 T01530120  RH  080%=      5-min Rain = 0
KLO1 160910Z 32004KT 15/12 A3014 RMK A01 T01540120  RH  080%=      5-min Rain = 0
KLO1 160911Z 33004KT 15/12 A3014 RMK A01 T01540119  RH  080%=      5-min Rain = 0
KLO1 160912Z 33004KT 15/12 A3014 RMK A01 T01540119  RH  080%=      5-min Rain = 0
KLO1 160913Z 34004KT 15/12 A3014 RMK A01 T01540119  RH  080%=      5-min Rain = 0
KLO1 160914Z 34004KT 15/12 A3014 RMK A01 T01530118  RH  080%=      5-min Rain = 0
KLO1 160915Z 33004KT 15/12 A3014 RMK A01 T01520118  RH  080%=      5-min Rain = 0
KLO1 160916Z 34005KT 15/12 A3014 RMK A01 T01530118  RH  080%=      5-min Rain = 0
KLO1 160917Z 34005KT 15/12 A3014 RMK A01 T01520118  RH  080%=      5-min Rain = 0
KLO1 160918Z 35005KT 15/12 A3014 RMK A01 T01520118  RH  080%=      5-min Rain = 0
KLO1 160919Z 36004KT 15/12 A3014 RMK A01 T01520118  RH  080%=      5-min Rain = 0
KLO1 160920Z 00004KT 15/12 A3014 RMK A01 T01520118  RH  080%=      5-min Rain = 0
KLO1 160921Z 36003KT 15/12 A3014 RMK A01 T01530119  RH  080%=      5-min Rain = 0
KLO1 160922Z 35003KT 15/12 A3014 RMK A01 T01540119  RH  079%=      5-min Rain = 0
KLO1 160923Z 35003KT 16/12 A3014 RMK A01 T01550118  RH  079%=      5-min Rain = 0
KLO1 160924Z 36003KT 16/12 A3014 RMK A01 T01550118  RH  079%=      5-min Rain = 0
KLO1 160925Z 35003KT 16/12 A3014 RMK A01 T01550118  RH  079%=      5-min Rain = 0
KLO1 160926Z 35002KT 16/12 A3014 RMK A01 T01550118  RH  079%=      5-min Rain = 0
KLO1 160927Z 34002KT 16/12 A3014 RMK A01 T01550118  RH  079%=      5-min Rain = 0
KLO1 160928Z 35002KT 16/12 A3014 RMK A01 T01550118  RH  078%=      5-min Rain = 0
KLO1 160929Z 35003KT 15/12 A3014 RMK A01 T01540117  RH  079%=      5-min Rain = 0
KLO1 160930Z 35003KT 15/12 A3014 RMK A01 T01540117  RH  079%=      5-min Rain = 0
KLO1 160931Z 35003KT 15/12 A3014 RMK A01 T01530116  RH  079%=      5-min Rain = 0
KLO1 160932Z 00003KT 15/12 A3014 RMK A01 T01520116  RH  079%=      5-min Rain = 0
KLO1 160933Z 00003KT 15/12 A3014 RMK A01 T01510116  RH  079%=      5-min Rain = 0
KLO1 160934Z 00003KT 15/12 A3014 RMK A01 T01510116  RH  080%=      5-min Rain = 0
KLO1 160935Z 36003KT 15/12 A3014 RMK A01 T01510117  RH  080%=      5-min Rain = 0
KLO1 160936Z 36004KT 15/12 A3014 RMK A01 T01520117  RH  080%=      5-min Rain = 0
KLO1 160937Z 36004KT 15/12 A3014 RMK A01 T01530117  RH  079%=      5-min Rain = 0
KLO1 160938Z 36004KT 15/12 A3014 RMK A01 T01530117  RH  079%=      5-min Rain = 0
KLO1 160939Z 00004KT 15/12 A3014 RMK A01 T01530117  RH  079%=      5-min Rain = 0
KLO1 160940Z 00004KT 15/12 A3014 RMK A01 T01530117  RH  079%=      5-min Rain = 0
KLO1 160941Z 36004KT 15/12 A3014 RMK A01 T01540117  RH  079%=      5-min Rain = 0
KLO1 160942Z 35004KT 15/12 A3014 RMK A01 T01540117  RH  079%=      5-min Rain = 0
KLO1 160943Z 36004KT 15/12 A3014 RMK A01 T01540116  RH  078%=      5-min Rain = 0
KLO1 160944Z 36004KT 15/12 A3014 RMK A01 T01540116  RH  078%=      5-min Rain = 0
KLO1 160945Z 35005KT 15/12 A3014 RMK A01 T01540116  RH  078%=      5-min Rain = 0
KLO1 160946Z 35006KT 16/12 A3014 RMK A01 T01550115  RH  077%=      5-min Rain = 0
KLO1 160947Z 35006KT 16/12 A3014 RMK A01 T01550115  RH  077%=      5-min Rain = 0
KLO1 160948Z 35006KT 16/12 A3014 RMK A01 T01560115  RH  077%=      5-min Rain = 0
KLO1 160949Z 35005KT 16/12 A3014 RMK A01 T01560115  RH  077%=      5-min Rain = 0
KLO1 160950Z 35005KT 16/12 A3014 RMK A01 T01560115  RH  076%=      5-min Rain = 0
KLO1 160951Z 35006KT 16/12 A3014 RMK A01 T01550115  RH  077%=      5-min Rain = 0
KLO1 160952Z 35006KT 16/11 A3014 RMK A01 T01550114  RH  077%=      5-min Rain = 0
KLO1 160953Z 35006KT 16/11 A3015 RMK A01 T01550114  RH  077%=      5-min Rain = 0
KLO1 160954Z 34007KT 15/11 A3015 RMK A01 T01540114  RH  077%=      5-min Rain = 0
KLO1 160955Z 34007KT 15/11 A3015 RMK A01 T01540113  RH  077%=      5-min Rain = 0
KLO1 160956Z 35007KT 15/11 A3014 RMK A01 T01520112  RH  077%=      5-min Rain = 0
KLO1 160957Z 34008KT 15/11 A3014 RMK A01 T01500110  RH  077%=      5-min Rain = 0
KLO1 160958Z 34008KT 15/11 A3014 RMK A01 T01500106  RH  075%=      5-min Rain = 0
KLO1 160959Z 34008KT 15/10 A3014 RMK A01 T01510103  RH  073%=      5-min Rain = 0
KLO1 161000Z 34009KT 15/10 A3015 RMK A01 T01530104  RH  072%=      5-min Rain = 0
KLO1 161001Z 34010KT 15/10 A3015 RMK A01 T01540101  RH  071%=      5-min Rain = 0
KLO1 161002Z 35011KT 16/10 A3015 RMK A01 T01560096  RH  068%=      5-min Rain = 0
KLO1 161003Z 34010KT 16/09 A3015 RMK A01 T01590092  RH  065%=      5-min Rain = 0
KLO1 161004Z 34011KT 16/09 A3015 RMK A01 T01600091  RH  063%=      5-min Rain = 0
KLO1 161005Z 35010KT 16/09 A3015 RMK A01 T01610089  RH  062%=      5-min Rain = 0
KLO1 161006Z 35008KT 16/09 A3015 RMK A01 T01620088  RH  062%=      5-min Rain = 0
KLO1 161007Z 36007KT 16/09 A3015 RMK A01 T01620087  RH  061%=      5-min Rain = 0
KLO1 161008Z 36008KT 16/09 A3015 RMK A01 T01630085  RH  060%=      5-min Rain = 0
KLO1 161009Z 35008KT 16/08 A3015 RMK A01 T01640083  RH  059%=      5-min Rain = 0
KLO1 161010Z 36006KT 17/08 A3015 RMK A01 T01650082  RH  058%=      5-min Rain = 0
KLO1 161011Z 35007KT 17/08 A3015 RMK A01 T01650080  RH  057%=      5-min Rain = 0
KLO1 161012Z 36006KT 17/08 A3015 RMK A01 T01650079  RH  057%=      5-min Rain = 0
KLO1 161013Z 36007KT 17/08 A3015 RMK A01 T01650077  RH  056%=      5-min Rain = 0
KLO1 161014Z 36007KT 17/08 A3015 RMK A01 T01660076  RH  055%=      5-min Rain = 0
KLO1 161015Z 35007KT 17/08 A3015 RMK A01 T01670075  RH  054%=      5-min Rain = 0
KLO1 161016Z 36008KT 17/07 A3015 RMK A01 T01670072  RH  054%=      5-min Rain = 0
KLO1 161017Z 36007KT 17/07 A3014 RMK A01 T01680072  RH  053%=      5-min Rain = 0
KLO1 161018Z 36008KT 17/07 A3014 RMK A01 T01690070  RH  052%=      5-min Rain = 0
KLO1 161019Z 36008KT 17/07 A3014 RMK A01 T01700069  RH  051%=      5-min Rain = 0
KLO1 161020Z 00009KT 17/07 A3014 RMK A01 T01700068  RH  051%=      5-min Rain = 0
KLO1 161021Z 00010KT 17/07 A3014 RMK A01 T01710066  RH  050%=      5-min Rain = 0
KLO1 161022Z 00008KT 17/07 A3014 RMK A01 T01720065  RH  049%=      5-min Rain = 0
KLO1 161023Z 00008KT 17/07 A3014 RMK A01 T01720065  RH  049%=      5-min Rain = 0
KLO1 161024Z 00009KT 17/06 A3014 RMK A01 T01720064  RH  049%=      5-min Rain = 0
KLO1 161025Z 00010KT 17/06 A3014 RMK A01 T01720062  RH  048%=      5-min Rain = 0
KLO1 161026Z 00009KT 17/06 A3014 RMK A01 T01720061  RH  048%=      5-min Rain = 0
KLO1 161027Z 36008KT 17/06 A3014 RMK A01 T01720060  RH  048%=      5-min Rain = 0
KLO1 161028Z 00008KT 17/06 A3014 RMK A01 T01720060  RH  048%=      5-min Rain = 0
KLO1 161029Z 00008KT 17/06 A3014 RMK A01 T01720060  RH  048%=      5-min Rain = 0
KLO1 161030Z 00009KT 17/06 A3014 RMK A01 T01720059  RH  047%=      5-min Rain = 0
KLO1 161031Z 36010KT 17/06 A3014 RMK A01 T01720057  RH  047%=      5-min Rain = 0
KLO1 161032Z 36008KT 17/06 A3014 RMK A01 T01720056  RH  046%=      5-min Rain = 0
KLO1 161033Z 36008KT 17/06 A3014 RMK A01 T01720056  RH  046%=      5-min Rain = 0
KLO1 161034Z 36008KT 17/06 A3014 RMK A01 T01720055  RH  046%=      5-min Rain = 0
KLO1 161035Z 35007KT 17/05 A3014 RMK A01 T01720054  RH  046%=      5-min Rain = 0
KLO1 161036Z 36009KT 17/05 A3014 RMK A01 T01720053  RH  045%=      5-min Rain = 0
KLO1 161037Z 35009KT 17/05 A3014 RMK A01 T01720051  RH  045%=      5-min Rain = 0
KLO1 161038Z 36008KT 17/05 A3014 RMK A01 T01720051  RH  045%=      5-min Rain = 0
KLO1 161039Z 35008KT 17/05 A3014 RMK A01 T01720050  RH  045%=      5-min Rain = 0
KLO1 161040Z 35008KT 17/05 A3014 RMK A01 T01720050  RH  044%=      5-min Rain = 0
KLO1 161041Z 35009KT 17/05 A3014 RMK A01 T01720049  RH  044%=      5-min Rain = 0
KLO1 161042Z 35008KT 17/05 A3014 RMK A01 T01710049  RH  044%=      5-min Rain = 0
KLO1 161043Z 35009KT 17/05 A3014 RMK A01 T01710048  RH  044%=      5-min Rain = 0
KLO1 161044Z 35008KT 17/05 A3014 RMK A01 T01710047  RH  044%=      5-min Rain = 0
KLO1 161045Z 35009KT 17/05 A3014 RMK A01 T01710047  RH  044%=      5-min Rain = 0
KLO1 161046Z 36009KT 17/05 A3014 RMK A01 T01710046  RH  044%=      5-min Rain = 0
KLO1 161047Z 35009KT 17/05 A3014 RMK A01 T01710045  RH  043%=      5-min Rain = 0
KLO1 161048Z 35010KT 17/05 A3014 RMK A01 T01710045  RH  043%=      5-min Rain = 0
KLO1 161049Z 35009KT 17/05 A3015 RMK A01 T01710045  RH  043%=      5-min Rain = 0
KLO1 161050Z 35009KT 17/05 A3015 RMK A01 T01710045  RH  043%=      5-min Rain = 0
KLO1 161051Z 36009KT 17/04 A3015 RMK A01 T01710044  RH  043%=      5-min Rain = 0
KLO1 161052Z 36009KT 17/04 A3014 RMK A01 T01710044  RH  043%=      5-min Rain = 0
KLO1 161053Z 36009KT 17/04 A3014 RMK A01 T01710043  RH  043%=      5-min Rain = 0
KLO1 161054Z 00008KT 17/04 A3015 RMK A01 T01710043  RH  043%=      5-min Rain = 0
KLO1 161055Z 00009KT 17/04 A3015 RMK A01 T01710043  RH  043%=      5-min Rain = 0
KLO1 161056Z 36008KT 17/04 A3015 RMK A01 T01710044  RH  043%=      5-min Rain = 0
KLO1 161057Z 00011KT 17/04 A3015 RMK A01 T01710043  RH  043%=      5-min Rain = 0
KLO1 161058Z 00010KT 17/04 A3015 RMK A01 T01710042  RH  042%=      5-min Rain = 0
KLO1 161059Z 36009KT 17/04 A3015 RMK A01 T01710042  RH  042%=      5-min Rain = 0
KLO1 161100Z 00009KT 17/04 A3015 RMK A01 T01720043  RH  042%=      5-min Rain = 0
KLO1 161101Z 00010KT 17/04 A3015 RMK A01 T01710043  RH  043%=      5-min Rain = 0
KLO1 161102Z 00009KT 17/04 A3015 RMK A01 T01710043  RH  043%=      5-min Rain = 0
KLO1 161103Z 00009KT 17/04 A3015 RMK A01 T01710043  RH  043%=      5-min Rain = 0
KLO1 161104Z 36008KT 17/04 A3015 RMK A01 T01700043  RH  043%=      5-min Rain = 0
KLO1 161105Z 00010KT 17/04 A3015 RMK A01 T01700043  RH  043%=      5-min Rain = 0
KLO1 161106Z 35007KT 17/04 A3015 RMK A01 T01700043  RH  043%=      5-min Rain = 0
KLO1 161107Z 00008KT 17/04 A3015 RMK A01 T01700044  RH  043%=      5-min Rain = 0
KLO1 161108Z 00007KT 17/04 A3015 RMK A01 T01690044  RH  043%=      5-min Rain = 0
KLO1 161109Z 00008KT 17/04 A3015 RMK A01 T01690044  RH  044%=      5-min Rain = 0
KLO1 161110Z 36009KT 17/04 A3015 RMK A01 T01690044  RH  044%=      5-min Rain = 0
KLO1 161111Z 00009KT 17/04 A3015 RMK A01 T01690044  RH  044%=      5-min Rain = 0
KLO1 161112Z 36008KT 17/05 A3015 RMK A01 T01690045  RH  044%=      5-min Rain = 0
KLO1 161113Z 35009KT 17/05 A3015 RMK A01 T01690045  RH  044%=      5-min Rain = 0
KLO1 161114Z 00008KT 17/05 A3015 RMK A01 T01680045  RH  044%=      5-min Rain = 0
KLO1 161115Z 00009KT 17/05 A3015 RMK A01 T01680045  RH  044%=      5-min Rain = 0
KLO1 161116Z 36008KT 17/05 A3015 RMK A01 T01670045  RH  044%=      5-min Rain = 0
KLO1 161117Z 36007KT 17/04 A3015 RMK A01 T01670044  RH  044%=      5-min Rain = 0
KLO1 161118Z 36008KT 17/05 A3015 RMK A01 T01670045  RH  044%=      5-min Rain = 0
KLO1 161119Z 36007KT 17/05 A3015 RMK A01 T01670045  RH  044%=      5-min Rain = 0
KLO1 161120Z 36008KT 17/05 A3015 RMK A01 T01670045  RH  044%=      5-min Rain = 0
KLO1 161121Z 35007KT 17/05 A3015 RMK A01 T01660046  RH  045%=      5-min Rain = 0
KLO1 161122Z 35007KT 17/05 A3015 RMK A01 T01650046  RH  045%=      5-min Rain = 0
KLO1 161123Z 35008KT 16/05 A3015 RMK A01 T01640047  RH  046%=      5-min Rain = 0
KLO1 161124Z 36006KT 16/05 A3015 RMK A01 T01640047  RH  046%=      5-min Rain = 0
KLO1 161125Z 35006KT 16/05 A3015 RMK A01 T01640048  RH  046%=      5-min Rain = 0
KLO1 161126Z 35007KT 16/05 A3015 RMK A01 T01630048  RH  047%=      5-min Rain = 0
KLO1 161127Z 35006KT 16/05 A3016 RMK A01 T01620049  RH  047%=      5-min Rain = 0
KLO1 161128Z 35007KT 16/05 A3016 RMK A01 T01620049  RH  047%=      5-min Rain = 0
KLO1 161129Z 35006KT 16/05 A3016 RMK A01 T01610050  RH  047%=      5-min Rain = 0
KLO1 161130Z 35007KT 16/05 A3016 RMK A01 T01610050  RH  048%=      5-min Rain = 0
KLO1 161131Z 35007KT 16/05 A3016 RMK A01 T01600050  RH  048%=      5-min Rain = 0
KLO1 161132Z 35007KT 16/05 A3016 RMK A01 T01590051  RH  049%=      5-min Rain = 0
KLO1 161133Z 35006KT 16/05 A3016 RMK A01 T01580051  RH  049%=      5-min Rain = 0
KLO1 161134Z 35006KT 16/05 A3016 RMK A01 T01580052  RH  049%=      5-min Rain = 0
KLO1 161135Z 35007KT 16/05 A3016 RMK A01 T01580052  RH  049%=      5-min Rain = 0
KLO1 161136Z 35007KT 16/05 A3016 RMK A01 T01580053  RH  050%=      5-min Rain = 0
KLO1 161137Z 36007KT 16/05 A3016 RMK A01 T01570053  RH  050%=      5-min Rain = 0
KLO1 161138Z 35008KT 16/05 A3016 RMK A01 T01570053  RH  050%=      5-min Rain = 0
KLO1 161139Z 35008KT 16/05 A3016 RMK A01 T01570054  RH  050%=      5-min Rain = 0
KLO1 161140Z 35008KT 16/05 A3016 RMK A01 T01570054  RH  050%=      5-min Rain = 0
KLO1 161141Z 35008KT 16/05 A3016 RMK A01 T01560054  RH  051%=      5-min Rain = 0
KLO1 161142Z 35010KT 16/05 A3016 RMK A01 T01560054  RH  051%=      5-min Rain = 0
KLO1 161143Z 36009KT 16/05 A3016 RMK A01 T01560054  RH  050%=      5-min Rain = 0
KLO1 161144Z 35010KT 16/05 A3016 RMK A01 T01570052  RH  050%=      5-min Rain = 0
KLO1 161145Z 35010KT 16/05 A3016 RMK A01 T01580051  RH  049%=      5-min Rain = 0
KLO1 161146Z 35009KT 16/05 A3016 RMK A01 T01580051  RH  049%=      5-min Rain = 0
KLO1 161147Z 36009KT 16/05 A3017 RMK A01 T01580050  RH  048%=      5-min Rain = 0
KLO1 161148Z 00014KT 16/05 A3017 RMK A01 T01580046  RH  047%=      5-min Rain = 0
KLO1 161149Z 00013KT 16/04 A3017 RMK A01 T01590043  RH  046%=      5-min Rain = 0
KLO1 161150Z 01015KT 16/04 A3017 RMK A01 T01600041  RH  045%=      5-min Rain = 0
KLO1 161151Z 01014KT 16/04 A3017 RMK A01 T01600040  RH  045%=      5-min Rain = 0
KLO1 161152Z 00013KT 16/04 A3017 RMK A01 T01610039  RH  044%=      5-min Rain = 0
KLO1 161153Z 01013KT 16/04 A3017 RMK A01 T01610039  RH  044%=      5-min Rain = 0
KLO1 161154Z 01014KT 16/04 A3017 RMK A01 T01600038  RH  044%=      5-min Rain = 0
KLO1 161155Z 00015KT 16/04 A3017 RMK A01 T01600036  RH  043%=      5-min Rain = 0
KLO1 161156Z 00015KT 16/03 A3017 RMK A01 T01600034  RH  043%=      5-min Rain = 0
KLO1 161157Z 00014KT 16/03 A3017 RMK A01 T01600033  RH  043%=      5-min Rain = 0
KLO1 161158Z 00013KT 16/03 A3017 RMK A01 T01600034  RH  043%=      5-min Rain = 0
KLO1 161159Z 01014KT 16/03 A3018 RMK A01 T01600033  RH  043%=      5-min Rain = 0
KLO1 161200Z 01014KT 16/03 A3018 RMK A01 T01600032  RH  042%=      5-min Rain = 0
KLO1 161201Z 00014KT 16/03 A3017 RMK A01 T01600031  RH  042%=      5-min Rain = 0
KLO1 161202Z 00015KT 16/03 A3017 RMK A01 T01600031  RH  042%=      5-min Rain = 0
KLO1 161203Z 01016KT 16/03 A3017 RMK A01 T01590030  RH  042%=      5-min Rain = 0
KLO1 161204Z 01012KT 16/03 A3017 RMK A01 T01600029  RH  042%=      5-min Rain = 0
KLO1 161205Z 01015KT 16/03 A3017 RMK A01 T01590029  RH  042%=      5-min Rain = 0
KLO1 161206Z 00023G29KT 16/03 A3017 RMK A01 T01590028  RH  041%=      5-min Rain = 0
KLO1 161207Z 00024KT 16/02 A3017 RMK A01 T01560022  RH  040%=      5-min Rain = 0
KLO1 161208Z 01021KT 15/02 A3018 RMK A01 T01500019  RH  041%=      5-min Rain = 0
KLO1 161209Z 01018G24KT 15/02 A3018 RMK A01 T01460018  RH  042%=      5-min Rain = 0
KLO1 161210Z 02021G26KT 14/02 A3018 RMK A01 T01430018  RH  043%=      5-min Rain = 0
KLO1 161211Z 03025KT 14/02 A3018 RMK A01 T01410017  RH  043%=      5-min Rain = 0
KLO1 161212Z 03023G28KT 14/01 A3018 RMK A01 T01390014  RH  043%=      5-min Rain = 0
KLO1 161213Z 02023KT 14/01 A3018 RMK A01 T01370013  RH  043%=      5-min Rain = 0
KLO1 161214Z 03022KT 14/01 A3019 RMK A01 T01360011  RH  042%=      5-min Rain = 0
KLO1 161215Z 03026KT 14/01 A3019 RMK A01 T01350008  RH  042%=      5-min Rain = 0
KLO1 161216Z 03024KT 13/01 A3019 RMK A01 T01330006  RH  042%=      5-min Rain = 0
KLO1 161217Z 03024KT 13/01 A3019 RMK A01 T01320005  RH  042%=      5-min Rain = 0
KLO1 161218Z 03022KT 13/00 A3019 RMK A01 T01310004  RH  042%=      5-min Rain = 0
KLO1 161219Z 03021KT 13/00 A3019 RMK A01 T01300004  RH  042%=      5-min Rain = 0
KLO1 161220Z 03021G26KT 13/00 A3019 RMK A01 T01290004  RH  042%=      5-min Rain = 0
KLO1 161221Z 02020KT 13/00 A3019 RMK A01 T01290002  RH  042%=      5-min Rain = 0
KLO1 161222Z 03019KT 13/00 A302 RMK A01 T01280002  RH  042%=      5-min Rain = 0
KLO1 161223Z 03021KT 13/00 A302 RMK A01 T01280002  RH  042%=      5-min Rain = 0
KLO1 161224Z 03020KT 13/00 A302 RMK A01 T01280002  RH  042%=      5-min Rain = 0
KLO1 161225Z 03019KT 13/00 A302 RMK A01 T01270001  RH  042%=      5-min Rain = 0
KLO1 161226Z 03017KT 13/00 A302 RMK A01 T01270001  RH  042%=      5-min Rain = 0
KLO1 161227Z 03015KT 13/00 A302 RMK A01 T01260002  RH  042%=      5-min Rain = 0
KLO1 161228Z 03016KT 13/00 A302 RMK A01 T01250002  RH  043%=      5-min Rain = 0
KLO1 161229Z 03017KT 13/00 A302 RMK A01 T01250001  RH  043%=      5-min Rain = 0
KLO1 161230Z 03014KT 13/00 A302 RMK A01 T01250001  RH  042%=      5-min Rain = 0
KLO1 161231Z 03013KT 13/00 A302 RMK A01 T01250001  RH  043%=      5-min Rain = 0
KLO1 161232Z 02013KT 12/00 A302 RMK A01 T01240002  RH  043%=      5-min Rain = 0
KLO1 161233Z 02017KT 12/00 A302 RMK A01 T01230000  RH  043%=      5-min Rain = 0
KLO1 161234Z 02016G21KT 12/M00 A302 RMK A01 T01221003  RH  042%=      5-min Rain = 0
KLO1 161235Z 02018G23KT 12/M00 A3021 RMK A01 T01211004  RH  042%=      5-min Rain = 0
KLO1 161236Z 02017KT 12/M01 A3021 RMK A01 T01201006  RH  042%=      5-min Rain = 0
KLO1 161237Z 02018KT 12/M01 A3021 RMK A01 T01191007  RH  042%=      5-min Rain = 0
KLO1 161238Z 02019KT 12/M01 A3021 RMK A01 T01191007  RH  042%=      5-min Rain = 0
KLO1 161239Z 02017KT 12/M01 A3021 RMK A01 T01181008  RH  042%=      5-min Rain = 0
KLO1 161240Z 02018KT 12/M01 A3021 RMK A01 T01181008  RH  042%=      5-min Rain = 0
KLO1 161241Z 03019KT 12/M01 A3022 RMK A01 T01181008  RH  042%=      5-min Rain = 0
KLO1 161242Z 02020KT 12/M01 A3022 RMK A01 T01171009  RH  042%=      5-min Rain = 0
KLO1 161243Z 02017KT 12/M01 A3021 RMK A01 T01171009  RH  042%=      5-min Rain = 0
KLO1 161244Z 03019G25KT 12/M01 A3022 RMK A01 T01171009  RH  042%=      5-min Rain = 0
KLO1 161245Z 03023G28KT 12/M01 A3022 RMK A01 T01161011  RH  041%=      5-min Rain = 0
KLO1 161246Z 03022G29KT 12/M01 A3022 RMK A01 T01151013  RH  041%=      5-min Rain = 0
KLO1 161247Z 03023KT 12/M02 A3022 RMK A01 T01151015  RH  040%=      5-min Rain = 0
KLO1 161248Z 03024KT 11/M02 A3022 RMK A01 T01141018  RH  040%=      5-min Rain = 0
KLO1 161249Z 03022KT 11/M02 A3022 RMK A01 T01131019  RH  040%=      5-min Rain = 0
KLO1 161250Z 03021KT 11/M02 A3022 RMK A01 T01121020  RH  040%=      5-min Rain = 0
KLO1 161251Z 03020KT 11/M02 A3022 RMK A01 T01121020  RH  040%=      5-min Rain = 0
KLO1 161252Z 04022G28KT 11/M02 A3023 RMK A01 T01121021  RH  040%=      5-min Rain = 0
KLO1 161253Z 03024KT 11/M02 A3022 RMK A01 T01111022  RH  039%=      5-min Rain = 0
KLO1 161254Z 03022G27KT 11/M02 A3023 RMK A01 T01101023  RH  039%=      5-min Rain = 0
KLO1 161255Z 03023KT 11/M02 A3023 RMK A01 T01101024  RH  039%=      5-min Rain = 0
KLO1 161256Z 03023G29KT 11/M03 A3023 RMK A01 T01101025  RH  039%=      5-min Rain = 0
KLO1 161257Z 03021KT 11/M03 A3023 RMK A01 T01091025  RH  039%=      5-min Rain = 0
KLO1 161258Z 03023KT 11/M03 A3023 RMK A01 T01091025  RH  039%=      5-min Rain = 0
KLO1 161259Z 02024G29KT 11/M03 A3023 RMK A01 T01081026  RH  039%=      5-min Rain = 0
KLO1 161300Z 02024KT 11/M03 A3023 RMK A01 T01081027  RH  039%=      5-min Rain = 0
KLO1 161301Z 03019KT 11/M03 A3023 RMK A01 T01081027  RH  039%=      5-min Rain = 0
KLO1 161302Z 03023KT 11/M03 A3023 RMK A01 T01081027  RH  039%=      5-min Rain = 0
KLO1 161303Z 03022KT 11/M03 A3023 RMK A01 T01081028  RH  039%=      5-min Rain = 0
KLO1 161304Z 02022G28KT 11/M03 A3023 RMK A01 T01071028  RH  039%=      5-min Rain = 0
KLO1 161305Z 02026KT 11/M03 A3023 RMK A01 T01071029  RH  039%=      5-min Rain = 0
KLO1 161306Z 03023KT 11/M03 A3023 RMK A01 T01061030  RH  038%=      5-min Rain = 0
KLO1 161307Z 02023KT 11/M03 A3023 RMK A01 T01061030  RH  038%=      5-min Rain = 0
KLO1 161308Z 02021KT 11/M03 A3023 RMK A01 T01051030  RH  038%=      5-min Rain = 0
KLO1 161309Z 02020KT 11/M03 A3024 RMK A01 T01051030  RH  039%=      5-min Rain = 0
KLO1 161310Z 02018G23KT 11/M03 A3024 RMK A01 T01051030  RH  039%=      5-min Rain = 0
KLO1 161311Z 02020KT 11/M03 A3024 RMK A01 T01051030  RH  039%=      5-min Rain = 0
KLO1 161312Z 03022KT 11/M03 A3024 RMK A01 T01051030  RH  039%=      5-min Rain = 0
KLO1 161313Z 03022KT 10/M03 A3024 RMK A01 T01041031  RH  039%=      5-min Rain = 0
KLO1 161314Z 03022KT 10/M03 A3024 RMK A01 T01041031  RH  039%=      5-min Rain = 0
KLO1 161315Z 03021KT 10/M03 A3024 RMK A01 T01041031  RH  039%=      5-min Rain = 0
KLO1 161316Z 03022KT 10/M03 A3024 RMK A01 T01031031  RH  039%=      5-min Rain = 0
KLO1 161317Z 03018G23KT 10/M03 A3024 RMK A01 T01031031  RH  039%=      5-min Rain = 0
KLO1 161318Z 02021G26KT 10/M03 A3024 RMK A01 T01031031  RH  039%=      5-min Rain = 0
KLO1 161319Z 02025KT 10/M03 A3024 RMK A01 T01031032  RH  039%=      5-min Rain = 0
KLO1 161320Z 03024KT 10/M03 A3024 RMK A01 T01021033  RH  038%=      5-min Rain = 0
KLO1 161321Z 03022KT 10/M03 A3024 RMK A01 T01021034  RH  038%=      5-min Rain = 0
KLO1 161322Z 03021KT 10/M03 A3024 RMK A01 T01021034  RH  038%=      5-min Rain = 0
KLO1 161323Z 03021KT 10/M03 A3024 RMK A01 T01021034  RH  038%=      5-min Rain = 0
KLO1 161324Z 03018KT 10/M03 A3024 RMK A01 T01021034  RH  038%=      5-min Rain = 0
KLO1 161325Z 03020KT 10/M03 A3024 RMK A01 T01011033  RH  039%=      5-min Rain = 0
KLO1 161326Z 03018KT 10/M03 A3024 RMK A01 T01011033  RH  039%=      5-min Rain = 0
KLO1 161327Z 03020KT 10/M03 A3024 RMK A01 T01011033  RH  039%=      5-min Rain = 0
KLO1 161328Z 02020KT 10/M03 A3024 RMK A01 T01011034  RH  039%=      5-min Rain = 0
KLO1 161329Z 03018KT 10/M03 A3025 RMK A01 T01011034  RH  039%=      5-min Rain = 0
KLO1 161330Z 03019KT 10/M03 A3025 RMK A01 T01011033  RH  039%=      5-min Rain = 0
KLO1 161331Z 02018G24KT 10/M03 A3025 RMK A01 T01011033  RH  039%=      5-min Rain = 0
KLO1 161332Z 02021G27KT 10/M03 A3025 RMK A01 T01001034  RH  039%=      5-min Rain = 0
KLO1 161333Z 03024KT 10/M04 A3025 RMK A01 T01001035  RH  038%=      5-min Rain = 0
KLO1 161334Z 03023KT 10/M04 A3025 RMK A01 T01001036  RH  038%=      5-min Rain = 0
KLO1 161335Z 03022KT 10/M04 A3025 RMK A01 T00991036  RH  038%=      5-min Rain = 0
KLO1 161336Z 03020KT 10/M04 A3025 RMK A01 T00991037  RH  038%=      5-min Rain = 0
KLO1 161337Z 03018KT 10/M04 A3025 RMK A01 T00981036  RH  038%=      5-min Rain = 0
KLO1 161338Z 03020G25KT 10/M04 A3025 RMK A01 T00981037  RH  039%=      5-min Rain = 0
KLO1 161339Z 03022KT 10/M04 A3025 RMK A01 T00981037  RH  038%=      5-min Rain = 0
KLO1 161340Z 03019KT 10/M04 A3025 RMK A01 T00971038  RH  038%=      5-min Rain = 0
KLO1 161341Z 02019G24KT 10/M04 A3025 RMK A01 T00971037  RH  039%=      5-min Rain = 0
KLO1 161342Z 02019KT 10/M04 A3025 RMK A01 T00971038  RH  039%=      5-min Rain = 0
KLO1 161343Z 03016KT 10/M04 A3025 RMK A01 T00971037  RH  039%=      5-min Rain = 0
KLO1 161344Z 02018KT 10/M04 A3025 RMK A01 T00961037  RH  039%=      5-min Rain = 0
KLO1 161345Z 03017G22KT 10/M04 A3025 RMK A01 T00961037  RH  039%=      5-min Rain = 0
KLO1 161346Z 04019KT 10/M04 A3025 RMK A01 T00961037  RH  039%=      5-min Rain = 0
KLO1 161347Z 03019KT 10/M04 A3026 RMK A01 T00961037  RH  039%=      5-min Rain = 0
KLO1 161348Z 03019KT 10/M04 A3026 RMK A01 T00961037  RH  039%=      5-min Rain = 0
KLO1 161349Z 02020KT 10/M04 A3026 RMK A01 T00961037  RH  039%=      5-min Rain = 0
KLO1 161350Z 03021KT 10/M04 A3026 RMK A01 T00961038  RH  039%=      5-min Rain = 0
KLO1 161351Z 03021G26KT 10/M04 A3026 RMK A01 T00951038  RH  039%=      5-min Rain = 0
KLO1 161352Z 03023KT 10/M04 A3026 RMK A01 T00951038  RH  039%=      5-min Rain = 0
KLO1 161353Z 03021G26KT 10/M04 A3026 RMK A01 T00951039  RH  039%=      5-min Rain = 0
KLO1 161354Z 02022KT 10/M04 A3026 RMK A01 T00951039  RH  039%=      5-min Rain = 0
KLO1 161355Z 03017KT 10/M04 A3026 RMK A01 T00951039  RH  039%=      5-min Rain = 0
KLO1 161356Z 02017KT 09/M04 A3026 RMK A01 T00941038  RH  039%=      5-min Rain = 0
KLO1 161357Z 02021KT 09/M04 A3026 RMK A01 T00941038  RH  039%=      5-min Rain = 0
KLO1 161358Z 02023KT 09/M04 A3026 RMK A01 T00941039  RH  039%=      5-min Rain = 0
KLO1 161359Z 03022KT 09/M04 A3026 RMK A01 T00941039  RH  039%=      5-min Rain = 0
KLO1 161400Z 03020KT 09/M04 A3026 RMK A01 T00941039  RH  039%=      5-min Rain = 0
KLO1 161401Z 03022KT 09/M04 A3026 RMK A01 T00941039  RH  039%=      5-min Rain = 0
KLO1 161402Z 03022KT 09/M04 A3026 RMK A01 T00941039  RH  039%=      5-min Rain = 0
KLO1 161403Z 03021KT 09/M04 A3026 RMK A01 T00941039  RH  039%=      5-min Rain = 0
KLO1 161404Z 03020KT 09/M04 A3027 RMK A01 T00941039  RH  039%=      5-min Rain = 0
KLO1 161405Z 03016G21KT 09/M04 A3027 RMK A01 T00941038  RH  039%=      5-min Rain = 0
KLO1 161406Z 03020G25KT 09/M04 A3027 RMK A01 T00941038  RH  039%=      5-min Rain = 0
KLO1 161407Z 03021KT 09/M04 A3027 RMK A01 T00941039  RH  039%=      5-min Rain = 0
KLO1 161408Z 03019KT 09/M04 A3027 RMK A01 T00941039  RH  039%=      5-min Rain = 0
KLO1 161409Z 04020KT 09/M04 A3027 RMK A01 T00931039  RH  039%=      5-min Rain = 0
KLO1 161410Z 04021KT 09/M04 A3027 RMK A01 T00931039  RH  039%=      5-min Rain = 0
KLO1 161411Z 04019KT 09/M04 A3027 RMK A01 T00941038  RH  039%=      5-min Rain = 0
KLO1 161412Z 04020G25KT 09/M04 A3027 RMK A01 T00931039  RH  039%=      5-min Rain = 0
KLO1 161413Z 04021KT 09/M04 A3027 RMK A01 T00931039  RH  039%=      5-min Rain = 0
KLO1 161414Z 04023KT 09/M04 A3027 RMK A01 T00931039  RH  039%=      5-min Rain = 0
KLO1 161415Z 03019KT 09/M04 A3027 RMK A01 T00931039  RH  039%=      5-min Rain = 0
KLO1 161416Z 04019KT 09/M04 A3027 RMK A01 T00931039  RH  039%=      5-min Rain = 0
KLO1 161417Z 04016KT 09/M04 A3027 RMK A01 T00931039  RH  039%=      5-min Rain = 0
KLO1 161418Z 04019G24KT 09/M04 A3027 RMK A01 T00931038  RH  039%=      5-min Rain = 0
KLO1 161419Z 04018KT 09/M04 A3027 RMK A01 T00931039  RH  039%=      5-min Rain = 0
KLO1 161420Z 04020G25KT 09/M04 A3028 RMK A01 T00931039  RH  039%=      5-min Rain = 0
KLO1 161421Z 04019KT 09/M04 A3028 RMK A01 T00941039  RH  039%=      5-min Rain = 0
KLO1 161422Z 04021KT 09/M04 A3028 RMK A01 T00941039  RH  039%=      5-min Rain = 0
KLO1 161423Z 04020KT 09/M04 A3028 RMK A01 T00941039  RH  039%=      5-min Rain = 0
KLO1 161424Z 04017KT 09/M04 A3028 RMK A01 T00941039  RH  039%=      5-min Rain = 0
KLO1 161425Z 04021KT 09/M04 A3028 RMK A01 T00941039  RH  039%=      5-min Rain = 0
KLO1 161426Z 04017KT 09/M04 A3028 RMK A01 T00941039  RH  039%=      5-min Rain = 0
KLO1 161427Z 04022G27KT 09/M04 A3029 RMK A01 T00941039  RH  039%=      5-min Rain = 0
KLO1 161428Z 04022KT 09/M04 A3029 RMK A01 T00941040  RH  039%=      5-min Rain = 0
KLO1 161429Z 04021KT 09/M04 A3029 RMK A01 T00931040  RH  039%=      5-min Rain = 0
KLO1 161430Z 04020KT 09/M04 A3029 RMK A01 T00931040  RH  039%=      5-min Rain = 0
KLO1 161431Z 04018KT 09/M04 A3029 RMK A01 T00931040  RH  039%=      5-min Rain = 0
KLO1 161432Z 04018KT 09/M04 A3029 RMK A01 T00931040  RH  039%=      5-min Rain = 0
KLO1 161433Z 03017KT 09/M04 A3029 RMK A01 T00931040  RH  039%=      5-min Rain = 0
KLO1 161434Z 03023KT 09/M04 A3029 RMK A01 T00931039  RH  039%=      5-min Rain = 0
KLO1 161435Z 03022KT 09/M04 A3029 RMK A01 T00931040  RH  039%=      5-min Rain = 0
KLO1 161436Z 03024KT 09/M04 A3029 RMK A01 T00931040  RH  039%=      5-min Rain = 0
KLO1 161437Z 04023KT 09/M04 A3029 RMK A01 T00921040  RH  039%=      5-min Rain = 0
KLO1 161438Z 04020KT 09/M04 A3029 RMK A01 T00931040  RH  039%=      5-min Rain = 0
KLO1 161439Z 03020KT 09/M04 A3029 RMK A01 T00931040  RH  039%=      5-min Rain = 0
KLO1 161440Z 04018KT 09/M04 A3029 RMK A01 T00931039  RH  039%=      5-min Rain = 0
KLO1 161441Z 03017KT 10/M04 A3029 RMK A01 T00951038  RH  039%=      5-min Rain = 0
KLO1 161442Z 04022G28KT 10/M04 A3029 RMK A01 T00951039  RH  039%=      5-min Rain = 0
KLO1 161443Z 04024KT 10/M04 A3029 RMK A01 T00961040  RH  038%=      5-min Rain = 0
KLO1 161444Z 03024KT 10/M04 A303 RMK A01 T00951041  RH  038%=      5-min Rain = 0
KLO1 161445Z 03020KT 10/M04 A3029 RMK A01 T00951041  RH  038%=      5-min Rain = 0
KLO1 161446Z 03021G26KT 10/M04 A303 RMK A01 T00961041  RH  038%=      5-min Rain = 0
KLO1 161447Z 03022KT 10/M04 A303 RMK A01 T00961041  RH  038%=      5-min Rain = 0
KLO1 161448Z 04020KT 10/M04 A3029 RMK A01 T00961042  RH  038%=      5-min Rain = 0
KLO1 161449Z 04018KT 10/M04 A3029 RMK A01 T00961041  RH  038%=      5-min Rain = 0
KLO1 161450Z 04019G24KT 10/M04 A3029 RMK A01 T00971041  RH  038%=      5-min Rain = 0
KLO1 161451Z 04023KT 10/M04 A3029 RMK A01 T00971042  RH  037%=      5-min Rain = 0
KLO1 161452Z 04024KT 10/M04 A3029 RMK A01 T00961042  RH  037%=      5-min Rain = 0
KLO1 161453Z 03021KT 10/M04 A3029 RMK A01 T00951043  RH  037%=      5-min Rain = 0
KLO1 161454Z 04019KT 10/M04 A3029 RMK A01 T00951042  RH  038%=      5-min Rain = 0
KLO1 161455Z 04018KT 10/M04 A3029 RMK A01 T00961042  RH  038%=      5-min Rain = 0
KLO1 161456Z 05019G25KT 10/M04 A3029 RMK A01 T00961042  RH  038%=      5-min Rain = 0
KLO1 161457Z 04020G27KT 10/M04 A3029 RMK A01 T00971042  RH  037%=      5-min Rain = 0
KLO1 161458Z 04024KT 10/M04 A303 RMK A01 T00951044  RH  037%=      5-min Rain = 0
KLO1 161459Z 04020KT 09/M04 A3029 RMK A01 T00941044  RH  037%=      5-min Rain = 0
KLO1 161500Z 04018KT 09/M04 A303 RMK A01 T00941044  RH  037%=      5-min Rain = 0
KLO1 161501Z 04022G28KT 10/M04 A303 RMK A01 T00951043  RH  037%=      5-min Rain = 0
KLO1 161502Z 04022G27KT 10/M04 A303 RMK A01 T00951043  RH  037%=      5-min Rain = 0
KLO1 161503Z 04022G28KT 09/M04 A303 RMK A01 T00941044  RH  037%=      5-min Rain = 0
KLO1 161504Z 05019KT 09/M05 A303 RMK A01 T00941045  RH  037%=      5-min Rain = 0
KLO1 161505Z 05021KT 09/M04 A303 RMK A01 T00941044  RH  037%=      5-min Rain = 0
KLO1 161506Z 05019KT 09/M05 A303 RMK A01 T00931045  RH  037%=      5-min Rain = 0
KLO1 161507Z 05018KT 09/M05 A303 RMK A01 T00921045  RH  038%=      5-min Rain = 0
KLO1 161508Z 04022G28KT 09/M04 A303 RMK A01 T00931044  RH  038%=      5-min Rain = 0
KLO1 161509Z 04020KT 09/M05 A303 RMK A01 T00931045  RH  037%=      5-min Rain = 0
KLO1 161510Z 03021KT 09/M05 A3031 RMK A01 T00931045  RH  038%=      5-min Rain = 0
KLO1 161511Z 04018KT 09/M05 A3031 RMK A01 T00931045  RH  037%=      5-min Rain = 0
KLO1 161512Z 03017G22KT 09/M04 A3031 RMK A01 T00931044  RH  038%=      5-min Rain = 0
KLO1 161513Z 04018KT 10/M04 A3031 RMK A01 T00951043  RH  037%=      5-min Rain = 0
KLO1 161514Z 03019KT 10/M04 A3031 RMK A01 T00961044  RH  037%=      5-min Rain = 0
KLO1 161515Z 04018KT 10/M04 A3031 RMK A01 T00961044  RH  037%=      5-min Rain = 0
KLO1 161516Z 04018G23KT 10/M04 A3031 RMK A01 T00971043  RH  037%=      5-min Rain = 0
KLO1 161517Z 05021G26KT 10/M04 A3031 RMK A01 T00971044  RH  037%=      5-min Rain = 0
KLO1 161518Z 05023KT 10/M05 A3032 RMK A01 T00951048  RH  036%=      5-min Rain = 0
KLO1 161519Z 05023KT 09/M05 A3031 RMK A01 T00921048  RH  037%=      5-min Rain = 0
KLO1 161520Z 05021KT 09/M05 A3031 RMK A01 T00921048  RH  037%=      5-min Rain = 0
KLO1 161521Z 04019G26KT 09/M05 A3031 RMK A01 T00931047  RH  037%=      5-min Rain = 0
KLO1 161522Z 04021KT 10/M05 A3031 RMK A01 T00951045  RH  037%=      5-min Rain = 0
KLO1 161523Z 05022KT 10/M05 A3032 RMK A01 T00971045  RH  036%=      5-min Rain = 0
KLO1 161524Z 05021KT 10/M05 A3032 RMK A01 T00961047  RH  036%=      5-min Rain = 0
KLO1 161525Z 05020KT 10/M05 A3032 RMK A01 T00961046  RH  036%=      5-min Rain = 0
KLO1 161526Z 04018KT 10/M05 A3031 RMK A01 T00951046  RH  037%=      5-min Rain = 0
KLO1 161527Z 05017KT 10/M04 A3031 RMK A01 T00981044  RH  036%=      5-min Rain = 0
KLO1 161528Z 04017KT 10/M04 A3031 RMK A01 T01001043  RH  036%=      5-min Rain = 0
KLO1 161529Z 04019KT 10/M04 A3032 RMK A01 T01011043  RH  036%=      5-min Rain = 0
KLO1 161530Z 04018KT 10/M05 A3032 RMK A01 T01001045  RH  036%=      5-min Rain = 0
KLO1 161531Z 04015KT 10/M04 A3032 RMK A01 T00991044  RH  036%=      5-min Rain = 0
KLO1 161532Z 03019KT 10/M04 A3032 RMK A01 T00991044  RH  036%=      5-min Rain = 0
KLO1 161533Z 03020KT 10/M05 A3032 RMK A01 T00971045  RH  036%=      5-min Rain = 0
KLO1 161534Z 02019KT 10/M05 A3032 RMK A01 T00951045  RH  037%=      5-min Rain = 0
KLO1 161535Z 03020KT 10/M05 A3032 RMK A01 T00951045  RH  037%=      5-min Rain = 0
KLO1 161536Z 03020G25KT 10/M04 A3032 RMK A01 T00951044  RH  037%=      5-min Rain = 0
KLO1 161537Z 03023KT 09/M05 A3032 RMK A01 T00941045  RH  037%=      5-min Rain = 0
KLO1 161538Z 02020KT 09/M05 A3032 RMK A01 T00931046  RH  037%=      5-min Rain = 0
KLO1 161539Z 02020KT 09/M05 A3032 RMK A01 T00931045  RH  038%=      5-min Rain = 0
KLO1 161540Z 03020KT 09/M04 A3032 RMK A01 T00931044  RH  038%=      5-min Rain = 0
KLO1 161541Z 04021KT 09/M04 A3032 RMK A01 T00931044  RH  038%=      5-min Rain = 0
KLO1 161542Z 03018KT 09/M05 A3032 RMK A01 T00931045  RH  037%=      5-min Rain = 0
KLO1 161543Z 03020G25KT 09/M05 A3032 RMK A01 T00921045  RH  038%=      5-min Rain = 0
KLO1 161544Z 03019KT 09/M04 A3032 RMK A01 T00921044  RH  038%=      5-min Rain = 0
KLO1 161545Z 03019KT 09/M04 A3032 RMK A01 T00931044  RH  038%=      5-min Rain = 0
KLO1 161546Z 03020KT 09/M04 A3032 RMK A01 T00941044  RH  038%=      5-min Rain = 0
KLO1 161547Z 04015KT 09/M04 A3032 RMK A01 T00931044  RH  038%=      5-min Rain = 0
KLO1 161548Z 04018KT 09/M04 A3032 RMK A01 T00941043  RH  038%=      5-min Rain = 0
KLO1 161549Z 04020KT 10/M04 A3032 RMK A01 T00951043  RH  037%=      5-min Rain = 0
KLO1 161550Z 03021KT 10/M05 A3032 RMK A01 T00951045  RH  037%=      5-min Rain = 0
KLO1 161551Z 03023KT 09/M05 A3032 RMK A01 T00941045  RH  037%=      5-min Rain = 0
KLO1 161552Z 03021KT 09/M05 A3032 RMK A01 T00931046  RH  037%=      5-min Rain = 0
KLO1 161553Z 03021KT 09/M05 A3032 RMK A01 T00931046  RH  037%=      5-min Rain = 0
KLO1 161554Z 04019KT 09/M05 A3032 RMK A01 T00941045  RH  037%=      5-min Rain = 0
KLO1 161555Z 03022KT 10/M04 A3032 RMK A01 T00951044  RH  037%=      5-min Rain = 0
KLO1 161556Z 03021KT 09/M05 A3032 RMK A01 T00941045  RH  037%=      5-min Rain = 0
KLO1 161557Z 03023KT 09/M05 A3032 RMK A01 T00931046  RH  037%=      5-min Rain = 0
KLO1 161558Z 03020KT 09/M05 A3032 RMK A01 T00931046  RH  037%=      5-min Rain = 0
KLO1 161559Z 03022KT 09/M05 A3032 RMK A01 T00931045  RH  037%=      5-min Rain = 0
KLO1 161600Z 03020KT 09/M05 A3033 RMK A01 T00941045  RH  037%=      5-min Rain = 0
KLO1 161601Z 04019KT 09/M05 A3033 RMK A01 T00931046  RH  037%=      5-min Rain = 0
KLO1 161602Z 03017KT 09/M05 A3033 RMK A01 T00921046  RH  037%=      5-min Rain = 0
KLO1 161603Z 04017KT 09/M05 A3033 RMK A01 T00921045  RH  038%=      5-min Rain = 0
KLO1 161604Z 04019KT 09/M05 A3033 RMK A01 T00921045  RH  037%=      5-min Rain = 0
KLO1 161605Z 03019KT 09/M04 A3033 RMK A01 T00931044  RH  038%=      5-min Rain = 0
KLO1 161606Z 03018KT 09/M05 A3033 RMK A01 T00921045  RH  038%=      5-min Rain = 0
KLO1 161607Z 03018KT 09/M05 A3033 RMK A01 T00911045  RH  038%=      5-min Rain = 0
KLO1 161608Z 04014KT 09/M04 A3033 RMK A01 T00911044  RH  038%=      5-min Rain = 0
KLO1 161609Z 03016KT 09/M04 A3033 RMK A01 T00921043  RH  038%=      5-min Rain = 0
KLO1 161610Z 03018KT 09/M04 A3033 RMK A01 T00921044  RH  038%=      5-min Rain = 0
KLO1 161611Z 03019KT 09/M04 A3033 RMK A01 T00921043  RH  038%=      5-min Rain = 0
KLO1 161612Z 03017KT 09/M04 A3033 RMK A01 T00911043  RH  038%=      5-min Rain = 0
KLO1 161613Z 03014KT 09/M04 A3033 RMK A01 T00921042  RH  039%=      5-min Rain = 0
KLO1 161614Z 04015KT 09/M04 A3033 RMK A01 T00941040  RH  039%=      5-min Rain = 0
KLO1 161615Z 03017KT 10/M04 A3033 RMK A01 T00961040  RH  038%=      5-min Rain = 0
KLO1 161616Z 04017KT 10/M04 A3033 RMK A01 T00951041  RH  038%=      5-min Rain = 0
KLO1 161617Z 04015KT 10/M04 A3033 RMK A01 T00951041  RH  038%=      5-min Rain = 0
KLO1 161618Z 04017KT 10/M04 A3033 RMK A01 T00961042  RH  038%=      5-min Rain = 0
KLO1 161619Z 05018G23KT 10/M04 A3033 RMK A01 T00961042  RH  037%=      5-min Rain = 0
KLO1 161620Z 05019KT 10/M05 A3033 RMK A01 T00951045  RH  037%=      5-min Rain = 0
KLO1 161621Z 05019KT 09/M05 A3033 RMK A01 T00921045  RH  037%=      5-min Rain = 0
KLO1 161622Z 04020KT 09/M05 A3033 RMK A01 T00921045  RH  038%=      5-min Rain = 0
KLO1 161623Z 04018KT 09/M05 A3033 RMK A01 T00911045  RH  038%=      5-min Rain = 0
KLO1 161624Z 05018KT 09/M05 A3033 RMK A01 T00911045  RH  038%=      5-min Rain = 0
KLO1 161625Z 05017KT 09/M05 A3033 RMK A01 T00911045  RH  038%=      5-min Rain = 0
KLO1 161626Z 04016KT 09/M04 A3033 RMK A01 T00911043  RH  038%=      5-min Rain = 0
KLO1 161627Z 03015KT 09/M04 A3033 RMK A01 T00941042  RH  038%=      5-min Rain = 0
KLO1 161628Z 03017KT 09/M04 A3033 RMK A01 T00941042  RH  038%=      5-min Rain = 0
KLO1 161629Z 03015KT 09/M04 A3033 RMK A01 T00941043  RH  038%=      5-min Rain = 0
KLO1 161630Z 03018KT 09/M04 A3033 RMK A01 T00941043  RH  038%=      5-min Rain = 0
KLO1 161631Z 03019KT 09/M04 A3033 RMK A01 T00931044  RH  038%=      5-min Rain = 0
KLO1 161632Z 03021KT 09/M04 A3034 RMK A01 T00921044  RH  038%=      5-min Rain = 0
KLO1 161633Z 03022KT 09/M05 A3034 RMK A01 T00911045  RH  038%=      5-min Rain = 0
KLO1 161634Z 04020KT 09/M05 A3034 RMK A01 T00901045  RH  038%=      5-min Rain = 0
KLO1 161635Z 03016KT 09/M05 A3033 RMK A01 T00901045  RH  038%=      5-min Rain = 0
KLO1 161636Z 04015G20KT 09/M04 A3033 RMK A01 T00921042  RH  038%=      5-min Rain = 0
KLO1 161637Z 04021KT 09/M04 A3034 RMK A01 T00941043  RH  038%=      5-min Rain = 0
KLO1 161638Z 04020KT 09/M04 A3034 RMK A01 T00931044  RH  038%=      5-min Rain = 0
KLO1 161639Z 04019KT 09/M04 A3034 RMK A01 T00931044  RH  038%=      5-min Rain = 0
KLO1 161640Z 04020KT 09/M04 A3034 RMK A01 T00921044  RH  038%=      5-min Rain = 0
KLO1 161641Z 03019KT 09/M04 A3034 RMK A01 T00931044  RH  038%=      5-min Rain = 0
KLO1 161642Z 03020KT 09/M04 A3034 RMK A01 T00931044  RH  038%=      5-min Rain = 0
KLO1 161643Z 04018KT 09/M04 A3034 RMK A01 T00931044  RH  038%=      5-min Rain = 0
KLO1 161644Z 03019KT 09/M04 A3034 RMK A01 T00941043  RH  038%=      5-min Rain = 0
KLO1 161645Z 03020KT 10/M04 A3034 RMK A01 T00961043  RH  037%=      5-min Rain = 0
KLO1 161646Z 04018KT 10/M04 A3034 RMK A01 T00961044  RH  037%=      5-min Rain = 0
KLO1 161647Z 04020KT 10/M04 A3034 RMK A01 T00961043  RH  037%=      5-min Rain = 0
KLO1 161648Z 04020KT 10/M04 A3034 RMK A01 T00961043  RH  037%=      5-min Rain = 0
KLO1 161649Z 04019KT 10/M04 A3034 RMK A01 T00951044  RH  037%=      5-min Rain = 0
KLO1 161650Z 04016G21KT 10/M04 A3034 RMK A01 T00951044  RH  037%=      5-min Rain = 0
KLO1 161651Z 05015KT 10/M04 A3034 RMK A01 T00951043  RH  037%=      5-min Rain = 0
KLO1 161652Z 05016KT 10/M04 A3034 RMK A01 T00961043  RH  037%=      5-min Rain = 0
KLO1 161653Z 04015KT 10/M04 A3034 RMK A01 T00961043  RH  037%=      5-min Rain = 0
KLO1 161654Z 05013KT 10/M04 A3034 RMK A01 T00951043  RH  037%=      5-min Rain = 0
KLO1 161655Z 04017KT 10/M04 A3034 RMK A01 T00961042  RH  038%=      5-min Rain = 0
KLO1 161656Z 04018KT 10/M04 A3034 RMK A01 T00961042  RH  037%=      5-min Rain = 0
KLO1 161657Z 04016KT 10/M04 A3034 RMK A01 T00951043  RH  037%=      5-min Rain = 0
KLO1 161658Z 04016KT 10/M04 A3034 RMK A01 T00951043  RH  038%=      5-min Rain = 0
KLO1 161659Z 05016KT 10/M04 A3034 RMK A01 T00961042  RH  037%=      5-min Rain = 0
KLO1 161700Z 05015KT 10/M04 A3034 RMK A01 T00951044  RH  037%=      5-min Rain = 0
KLO1 161701Z 03015KT 09/M04 A3034 RMK A01 T00941043  RH  038%=      5-min Rain = 0
KLO1 161702Z 04018KT 10/M04 A3034 RMK A01 T00971040  RH  038%=      5-min Rain = 0
KLO1 161703Z 04019KT 10/M04 A3034 RMK A01 T00981041  RH  037%=      5-min Rain = 0
KLO1 161704Z 04018KT 10/M04 A3034 RMK A01 T00971042  RH  037%=      5-min Rain = 0
KLO1 161705Z 04017KT 10/M04 A3034 RMK A01 T00981040  RH  037%=      5-min Rain = 0
KLO1 161706Z 03017KT 10/M04 A3034 RMK A01 T00981041  RH  037%=      5-min Rain = 0
KLO1 161707Z 04021KT 10/M04 A3034 RMK A01 T00991042  RH  037%=      5-min Rain = 0
KLO1 161708Z 04017KT 10/M04 A3034 RMK A01 T00971043  RH  037%=      5-min Rain = 0
KLO1 161709Z 05016G21KT 10/M04 A3034 RMK A01 T00971042  RH  037%=      5-min Rain = 0
KLO1 161710Z 04017KT 10/M04 A3034 RMK A01 T00971042  RH  037%=      5-min Rain = 0
KLO1 161711Z 04016KT 10/M04 A3034 RMK A01 T00971042  RH  037%=      5-min Rain = 0
KLO1 161712Z 05016KT 10/M04 A3034 RMK A01 T00991040  RH  037%=      5-min Rain = 0
KLO1 161713Z 05014G19KT 10/M04 A3033 RMK A01 T01001042  RH  037%=      5-min Rain = 0
KLO1 161714Z 04018KT 10/M04 A3034 RMK A01 T01001041  RH  037%=      5-min Rain = 0
KLO1 161715Z 03018G24KT 10/M04 A3033 RMK A01 T01001041  RH  037%=      5-min Rain = 0
KLO1 161716Z 04021KT 10/M04 A3034 RMK A01 T01001041  RH  037%=      5-min Rain = 0
KLO1 161717Z 04017KT 10/M04 A3034 RMK A01 T01001041  RH  037%=      5-min Rain = 0
KLO1 161718Z 04019KT 10/M04 A3034 RMK A01 T00991042  RH  037%=      5-min Rain = 0
KLO1 161719Z 03018G24KT 10/M04 A3034 RMK A01 T00981043  RH  037%=      5-min Rain = 0
KLO1 161720Z 03021KT 10/M04 A3034 RMK A01 T00991043  RH  037%=      5-min Rain = 0
KLO1 161721Z 04018KT 10/M04 A3034 RMK A01 T00991043  RH  036%=      5-min Rain = 0
KLO1 161722Z 06019KT 10/M04 A3034 RMK A01 T00991043  RH  036%=      5-min Rain = 0
KLO1 161723Z 06017KT 10/M04 A3034 RMK A01 T00991043  RH  036%=      5-min Rain = 0
KLO1 161724Z 06015KT 10/M04 A3033 RMK A01 T00991043  RH  037%=      5-min Rain = 0
KLO1 161725Z 05017KT 10/M04 A3033 RMK A01 T00991042  RH  037%=      5-min Rain = 0
KLO1 161726Z 05015KT 10/M04 A3033 RMK A01 T01011041  RH  037%=      5-min Rain = 0
KLO1 161727Z 05014KT 10/M04 A3033 RMK A01 T01021041  RH  036%=      5-min Rain = 0
KLO1 161728Z 04014KT 10/M04 A3033 RMK A01 T01031039  RH  036%=      5-min Rain = 0
KLO1 161729Z 04014KT 11/M04 A3033 RMK A01 T01071038  RH  036%=      5-min Rain = 0
KLO1 161730Z 04016KT 11/M04 A3033 RMK A01 T01071041  RH  035%=      5-min Rain = 0
KLO1 161731Z 05016KT 11/M04 A3033 RMK A01 T01051041  RH  035%=      5-min Rain = 0
KLO1 161732Z 05018KT 11/M04 A3033 RMK A01 T01051041  RH  036%=      5-min Rain = 0
KLO1 161733Z 05020KT 10/M04 A3033 RMK A01 T01031043  RH  036%=      5-min Rain = 0
KLO1 161734Z 05016G21KT 10/M04 A3033 RMK A01 T01001044  RH  036%=      5-min Rain = 0
KLO1 161735Z 06018KT 10/M04 A3033 RMK A01 T00991043  RH  036%=      5-min Rain = 0
KLO1 161736Z 05015KT 10/M04 A3033 RMK A01 T01001042  RH  037%=      5-min Rain = 0
KLO1 161737Z 06015KT 10/M04 A3033 RMK A01 T01001042  RH  036%=      5-min Rain = 0
KLO1 161738Z 06018KT 10/M04 A3033 RMK A01 T01011041  RH  037%=      5-min Rain = 0
KLO1 161739Z 06015KT 10/M04 A3033 RMK A01 T01021041  RH  036%=      5-min Rain = 0
KLO1 161740Z 05015KT 10/M04 A3033 RMK A01 T01021041  RH  036%=      5-min Rain = 0
KLO1 161741Z 05016KT 10/M04 A3033 RMK A01 T01031041  RH  036%=      5-min Rain = 0
KLO1 161742Z 05015KT 10/M04 A3033 RMK A01 T01031040  RH  036%=      5-min Rain = 0
KLO1 161743Z 03014KT 10/M04 A3033 RMK A01 T01031040  RH  036%=      5-min Rain = 0
KLO1 161744Z 04016G21KT 10/M04 A3033 RMK A01 T01031040  RH  036%=      5-min Rain = 0
KLO1 161745Z 04017KT 11/M04 A3033 RMK A01 T01061037  RH  036%=      5-min Rain = 0
KLO1 161746Z 04015KT 11/M04 A3033 RMK A01 T01081039  RH  036%=      5-min Rain = 0
KLO1 161747Z 03017KT 11/M04 A3033 RMK A01 T01061040  RH  036%=      5-min Rain = 0
KLO1 161748Z 05017KT 10/M04 A3033 RMK A01 T01041041  RH  036%=      5-min Rain = 0
KLO1 161749Z 04019KT 10/M04 A3033 RMK A01 T01031041  RH  036%=      5-min Rain = 0
KLO1 161750Z 04016KT 10/M04 A3033 RMK A01 T01021041  RH  036%=      5-min Rain = 0
KLO1 161751Z 04015KT 10/M04 A3033 RMK A01 T01011041  RH  037%=      5-min Rain = 0
KLO1 161752Z 05016G22KT 10/M04 A3033 RMK A01 T01011040  RH  037%=      5-min Rain = 0
KLO1 161753Z 03018KT 10/M04 A3033 RMK A01 T01011040  RH  037%=      5-min Rain = 0
KLO1 161754Z 03017KT 10/M04 A3033 RMK A01 T01011042  RH  036%=      5-min Rain = 0
KLO1 161755Z 04018KT 10/M04 A3033 RMK A01 T01011041  RH  037%=      5-min Rain = 0
KLO1 161756Z 04018KT 10/M04 A3033 RMK A01 T01021042  RH  036%=      5-min Rain = 0
KLO1 161757Z 05016KT 10/M04 A3033 RMK A01 T01011042  RH  036%=      5-min Rain = 0
KLO1 161758Z 04016KT 10/M04 A3033 RMK A01 T01041040  RH  036%=      5-min Rain = 0
KLO1 161759Z 04016KT 10/M04 A3033 RMK A01 T01041042  RH  036%=      5-min Rain = 0
KLO1 161800Z 04018KT 10/M04 A3033 RMK A01 T01011043  RH  036%=      5-min Rain = 0
KLO1 161801Z 04017G22KT 10/M04 A3033 RMK A01 T01001043  RH  036%=      5-min Rain = 0
KLO1 161802Z 04017G22KT 10/M04 A3033 RMK A01 T01011042  RH  036%=      5-min Rain = 0
KLO1 161803Z 04018KT 10/M04 A3033 RMK A01 T01021043  RH  036%=      5-min Rain = 0
KLO1 161804Z 05017KT 10/M04 A3033 RMK A01 T01001044  RH  036%=      5-min Rain = 0
KLO1 161805Z 04019KT 10/M04 A3033 RMK A01 T00991043  RH  036%=      5-min Rain = 0
KLO1 161806Z 04017KT 10/M04 A3033 RMK A01 T01001043  RH  036%=      5-min Rain = 0
KLO1 161807Z 04017KT 10/M04 A3033 RMK A01 T01021043  RH  036%=      5-min Rain = 0
KLO1 161808Z 04018KT 10/M04 A3033 RMK A01 T01031043  RH  036%=      5-min Rain = 0
KLO1 161809Z 04019KT 10/M04 A3033 RMK A01 T01021043  RH  036%=      5-min Rain = 0
KLO1 161810Z 04018KT 10/M04 A3033 RMK A01 T01011043  RH  036%=      5-min Rain = 0
KLO1 161811Z 04014G19KT 10/M04 A3032 RMK A01 T01021043  RH  036%=      5-min Rain = 0
KLO1 161812Z 04016G21KT 10/M04 A3032 RMK A01 T01021042  RH  036%=      5-min Rain = 0
KLO1 161813Z 04017KT 10/M04 A3032 RMK A01 T01031041  RH  036%=      5-min Rain = 0
KLO1 161814Z 04016KT 10/M04 A3032 RMK A01 T01041042  RH  036%=      5-min Rain = 0
KLO1 161815Z 04017KT 10/M04 A3032 RMK A01 T01041042  RH  036%=      5-min Rain = 0
KLO1 161816Z 04015KT 10/M04 A3033 RMK A01 T01041042  RH  036%=      5-min Rain = 0
KLO1 161817Z 04016KT 10/M04 A3032 RMK A01 T01041041  RH  036%=      5-min Rain = 0
KLO1 161818Z 04016KT 11/M04 A3032 RMK A01 T01061041  RH  035%=      5-min Rain = 0
KLO1 161819Z 05017G22KT 11/M04 A3032 RMK A01 T01071041  RH  035%=      5-min Rain = 0
KLO1 161820Z 05016KT 11/M04 A3032 RMK A01 T01071041  RH  035%=      5-min Rain = 0
KLO1 161821Z 06015KT 11/M04 A3032 RMK A01 T01061042  RH  035%=      5-min Rain = 0
KLO1 161822Z 07014KT 11/M04 A3032 RMK A01 T01061041  RH  035%=      5-min Rain = 0
KLO1 161823Z 07016KT 11/M04 A3032 RMK A01 T01061041  RH  035%=      5-min Rain = 0
KLO1 161824Z 07013KT 11/M04 A3032 RMK A01 T01061041  RH  035%=      5-min Rain = 0
KLO1 161825Z 07013KT 11/M04 A3032 RMK A01 T01051042  RH  035%=      5-min Rain = 0
KLO1 161826Z 07011KT 10/M04 A3032 RMK A01 T01041042  RH  036%=      5-min Rain = 0
KLO1 161827Z 04012KT 11/M04 A3032 RMK A01 T01061039  RH  036%=      5-min Rain = 0
KLO1 161828Z 05015KT 11/M04 A3032 RMK A01 T01101037  RH  035%=      5-min Rain = 0
KLO1 161829Z 05014KT 11/M04 A3032 RMK A01 T01101040  RH  035%=      5-min Rain = 0
KLO1 161830Z 05012KT 11/M04 A3032 RMK A01 T01091041  RH  035%=      5-min Rain = 0
KLO1 161831Z 05013KT 11/M04 A3032 RMK A01 T01081041  RH  035%=      5-min Rain = 0
KLO1 161832Z 05013KT 11/M04 A3032 RMK A01 T01081041  RH  035%=      5-min Rain = 0
KLO1 161833Z 06011KT 11/M04 A3032 RMK A01 T01081041  RH  035%=      5-min Rain = 0
KLO1 161834Z 05013KT 11/M04 A3031 RMK A01 T01081041  RH  035%=      5-min Rain = 0
KLO1 161835Z 04015KT 11/M04 A3031 RMK A01 T01081041  RH  035%=      5-min Rain = 0
KLO1 161836Z 04016KT 11/M04 A3031 RMK A01 T01081041  RH  035%=      5-min Rain = 0
KLO1 161837Z 03017KT 11/M04 A3031 RMK A01 T01071041  RH  035%=      5-min Rain = 0
KLO1 161838Z 03015KT 11/M04 A3031 RMK A01 T01051042  RH  035%=      5-min Rain = 0
KLO1 161839Z 05012KT 11/M04 A3031 RMK A01 T01051040  RH  036%=      5-min Rain = 0
KLO1 161840Z 06011KT 11/M04 A3031 RMK A01 T01081038  RH  036%=      5-min Rain = 0
KLO1 161841Z 04009KT 11/M04 A3031 RMK A01 T01091038  RH  035%=      5-min Rain = 0
KLO1 161842Z 04012KT 11/M04 A3031 RMK A01 T01101037  RH  035%=      5-min Rain = 0
KLO1 161843Z 04014G19KT 11/M04 A3031 RMK A01 T01131036  RH  035%=      5-min Rain = 0
KLO1 161844Z 04015KT 12/M04 A3031 RMK A01 T01151038  RH  034%=      5-min Rain = 0
KLO1 161845Z 03014KT 11/M04 A3031 RMK A01 T01131039  RH  034%=      5-min Rain = 0
KLO1 161846Z 03016G21KT 11/M04 A3031 RMK A01 T01121039  RH  034%=      5-min Rain = 0
KLO1 161847Z 05012KT 11/M04 A3031 RMK A01 T01101040  RH  035%=      5-min Rain = 0
KLO1 161848Z 03014KT 11/M04 A3031 RMK A01 T01091040  RH  035%=      5-min Rain = 0
KLO1 161849Z 04010KT 11/M04 A3031 RMK A01 T01091040  RH  035%=      5-min Rain = 0
KLO1 161850Z 04014KT 11/M04 A3031 RMK A01 T01101039  RH  035%=      5-min Rain = 0
KLO1 161851Z 03014KT 11/M04 A3031 RMK A01 T01111039  RH  035%=      5-min Rain = 0
KLO1 161852Z 03014KT 11/M04 A3031 RMK A01 T01121039  RH  034%=      5-min Rain = 0
KLO1 161853Z 03013KT 11/M04 A3031 RMK A01 T01111039  RH  035%=      5-min Rain = 0
KLO1 161854Z 02016KT 11/M04 A3031 RMK A01 T01121038  RH  035%=      5-min Rain = 0
KLO1 161855Z 03014KT 11/M04 A3031 RMK A01 T01131039  RH  034%=      5-min Rain = 0
KLO1 161856Z 02015KT 11/M04 A3031 RMK A01 T01131038  RH  034%=      5-min Rain = 0
KLO1 161857Z 03013KT 11/M04 A303 RMK A01 T01131039  RH  034%=      5-min Rain = 0
KLO1 161858Z 03014KT 11/M04 A303 RMK A01 T01121039  RH  034%=      5-min Rain = 0
KLO1 161859Z 03014KT 11/M04 A303 RMK A01 T01141039  RH  034%=      5-min Rain = 0
KLO1 161900Z 03015G20KT 11/M04 A303 RMK A01 T01131040  RH  034%=      5-min Rain = 0
KLO1 161901Z 04016KT 12/M04 A303 RMK A01 T01181036  RH  034%=      5-min Rain = 0
KLO1 161902Z 03016KT 12/M04 A303 RMK A01 T01201037  RH  033%=      5-min Rain = 0
KLO1 161903Z 04013KT 12/M04 A303 RMK A01 T01171041  RH  033%=      5-min Rain = 0
KLO1 161904Z 05014G19KT 11/M04 A3029 RMK A01 T01141040  RH  034%=      5-min Rain = 0
KLO1 161905Z 05016KT 12/M04 A3029 RMK A01 T01151038  RH  034%=      5-min Rain = 0
KLO1 161906Z 05015KT 12/M04 A3029 RMK A01 T01181037  RH  034%=      5-min Rain = 0
KLO1 161907Z 04014KT 12/M04 A3029 RMK A01 T01181038  RH  033%=      5-min Rain = 0
KLO1 161908Z 06013KT 12/M04 A3029 RMK A01 T01171039  RH  033%=      5-min Rain = 0
KLO1 161909Z 06011KT 12/M04 A3029 RMK A01 T01161039  RH  034%=      5-min Rain = 0
KLO1 161910Z 05012G17KT 12/M04 A3029 RMK A01 T01151039  RH  034%=      5-min Rain = 0
KLO1 161911Z 05015KT 12/M04 A3029 RMK A01 T01161037  RH  034%=      5-min Rain = 0
KLO1 161912Z 05014KT 12/M04 A3029 RMK A01 T01181037  RH  034%=      5-min Rain = 0
KLO1 161913Z 05018KT 12/M04 A3029 RMK A01 T01191038  RH  033%=      5-min Rain = 0
KLO1 161914Z 04014G19KT 12/M04 A3029 RMK A01 T01191038  RH  033%=      5-min Rain = 0
KLO1 161915Z 05015KT 12/M04 A3029 RMK A01 T01171040  RH  033%=      5-min Rain = 0
KLO1 161916Z 05015KT 12/M04 A3029 RMK A01 T01161039  RH  033%=      5-min Rain = 0
KLO1 161917Z 06013KT 12/M04 A3029 RMK A01 T01161038  RH  034%=      5-min Rain = 0
KLO1 161918Z 06013KT 12/M04 A3029 RMK A01 T01181038  RH  033%=      5-min Rain = 0
KLO1 161919Z 06013KT 12/M04 A3029 RMK A01 T01161038  RH  034%=      5-min Rain = 0
KLO1 161920Z 06011KT 12/M04 A3028 RMK A01 T01151039  RH  034%=      5-min Rain = 0
KLO1 161921Z 04015KT 12/M04 A3028 RMK A01 T01151038  RH  034%=      5-min Rain = 0
KLO1 161922Z 04015KT 12/M04 A3028 RMK A01 T01181036  RH  034%=      5-min Rain = 0
KLO1 161923Z 04016KT 12/M04 A3028 RMK A01 T01191037  RH  033%=      5-min Rain = 0
KLO1 161924Z 04013KT 12/M04 A3028 RMK A01 T01191037  RH  033%=      5-min Rain = 0
KLO1 161925Z 04011KT 12/M04 A3028 RMK A01 T01171039  RH  033%=      5-min Rain = 0
KLO1 161926Z 03011KT 12/M04 A3028 RMK A01 T01151038  RH  034%=      5-min Rain = 0
KLO1 161927Z 03014KT 12/M04 A3028 RMK A01 T01151038  RH  034%=      5-min Rain = 0
KLO1 161928Z 03014KT 12/M04 A3028 RMK A01 T01151038  RH  034%=      5-min Rain = 0
KLO1 161929Z 04016KT 12/M04 A3028 RMK A01 T01151038  RH  034%=      5-min Rain = 0
KLO1 161930Z 04014KT 12/M04 A3028 RMK A01 T01151039  RH  034%=      5-min Rain = 0
KLO1 161931Z 04013KT 12/M04 A3028 RMK A01 T01151038  RH  034%=      5-min Rain = 0
KLO1 161932Z 03012KT 12/M04 A3028 RMK A01 T01161037  RH  034%=      5-min Rain = 0
KLO1 161933Z 04012KT 12/M04 A3028 RMK A01 T01191036  RH  034%=      5-min Rain = 0
KLO1 161934Z 06012KT 12/M04 A3028 RMK A01 T01211036  RH  033%=      5-min Rain = 0
KLO1 161935Z 05012KT 12/M04 A3028 RMK A01 T01221037  RH  033%=      5-min Rain = 0
KLO1 161936Z 05011KT 12/M04 A3028 RMK A01 T01211038  RH  033%=      5-min Rain = 0
KLO1 161937Z 05013KT 12/M04 A3028 RMK A01 T01201037  RH  033%=      5-min Rain = 0
KLO1 161938Z 04013KT 12/M04 A3028 RMK A01 T01201038  RH  033%=      5-min Rain = 0
KLO1 161939Z 03015KT 12/M04 A3027 RMK A01 T01191037  RH  033%=      5-min Rain = 0
KLO1 161940Z 04015KT 12/M04 A3027 RMK A01 T01191038  RH  033%=      5-min Rain = 0
KLO1 161941Z 05015KT 12/M04 A3027 RMK A01 T01191037  RH  033%=      5-min Rain = 0
KLO1 161942Z 04013KT 12/M04 A3027 RMK A01 T01201037  RH  033%=      5-min Rain = 0
KLO1 161943Z 03013KT 12/M04 A3027 RMK A01 T01211037  RH  033%=      5-min Rain = 0
KLO1 161944Z 04013KT 12/M04 A3027 RMK A01 T01221036  RH  033%=      5-min Rain = 0
KLO1 161945Z 05017KT 12/M04 A3027 RMK A01 T01231035  RH  033%=      5-min Rain = 0
KLO1 161946Z 05015KT 13/M04 A3027 RMK A01 T01251036  RH  032%=      5-min Rain = 0
KLO1 161947Z 04011KT 12/M04 A3027 RMK A01 T01221038  RH  033%=      5-min Rain = 0
KLO1 161948Z 03013G18KT 12/M04 A3027 RMK A01 T01211037  RH  033%=      5-min Rain = 0
KLO1 161949Z 04016KT 12/M04 A3027 RMK A01 T01241036  RH  033%=      5-min Rain = 0
KLO1 161950Z 03015KT 13/M04 A3027 RMK A01 T01251037  RH  032%=      5-min Rain = 0
KLO1 161951Z 04015KT 12/M04 A3027 RMK A01 T01231038  RH  032%=      5-min Rain = 0
KLO1 161952Z 04017KT 12/M04 A3027 RMK A01 T01231037  RH  032%=      5-min Rain = 0
KLO1 161953Z 04017KT 12/M04 A3026 RMK A01 T01231037  RH  032%=      5-min Rain = 0
KLO1 161954Z 05013KT 12/M04 A3026 RMK A01 T01221039  RH  032%=      5-min Rain = 0
KLO1 161955Z 06014KT 12/M04 A3026 RMK A01 T01201038  RH  033%=      5-min Rain = 0
KLO1 161956Z 07013KT 12/M04 A3026 RMK A01 T01211039  RH  032%=      5-min Rain = 0
KLO1 161957Z 06010KT 12/M04 A3026 RMK A01 T01171042  RH  032%=      5-min Rain = 0
KLO1 161958Z 04011G18KT 12/M04 A3026 RMK A01 T01161041  RH  033%=      5-min Rain = 0
KLO1 161959Z 06016G25KT 12/M04 A3026 RMK A01 T01191038  RH  033%=      5-min Rain = 0
KLO1 162000Z 06014KT 12/M04 A3026 RMK A01 T01211039  RH  033%=      5-min Rain = 0
KLO1 162001Z 07012KT 12/M04 A3026 RMK A01 T01191039  RH  033%=      5-min Rain = 0
KLO1 162002Z 06010KT 12/M04 A3026 RMK A01 T01171040  RH  033%=      5-min Rain = 0
KLO1 162003Z 06012KT 12/M04 A3026 RMK A01 T01181039  RH  033%=      5-min Rain = 0
KLO1 162004Z 06011KT 12/M04 A3025 RMK A01 T01211038  RH  033%=      5-min Rain = 0
KLO1 162005Z 06010KT 12/M04 A3025 RMK A01 T01221038  RH  033%=      5-min Rain = 0
KLO1 162006Z 06011KT 13/M04 A3025 RMK A01 T01251036  RH  032%=      5-min Rain = 0
KLO1 162007Z 06014KT 13/M04 A3025 RMK A01 T01251038  RH  032%=      5-min Rain = 0
KLO1 162008Z 07013KT 12/M04 A3025 RMK A01 T01241038  RH  032%=      5-min Rain = 0
KLO1 162009Z 06015G20KT 12/M04 A3025 RMK A01 T01221039  RH  032%=      5-min Rain = 0
KLO1 162010Z 05016KT 12/M04 A3025 RMK A01 T01211040  RH  032%=      5-min Rain = 0
KLO1 162011Z 05013KT 12/M04 A3025 RMK A01 T01181040  RH  033%=      5-min Rain = 0
KLO1 162012Z 05011KT 12/M04 A3025 RMK A01 T01171040  RH  033%=      5-min Rain = 0
KLO1 162013Z 06014G19KT 12/M04 A3025 RMK A01 T01181037  RH  034%=      5-min Rain = 0
KLO1 162014Z 04017KT 12/M04 A3025 RMK A01 T01201037  RH  033%=      5-min Rain = 0
KLO1 162015Z 04013KT 12/M04 A3025 RMK A01 T01181039  RH  033%=      5-min Rain = 0
KLO1 162016Z 04014KT 12/M04 A3025 RMK A01 T01171038  RH  034%=      5-min Rain = 0
KLO1 162017Z 04010KT 12/M04 A3025 RMK A01 T01171038  RH  034%=      5-min Rain = 0
KLO1 162018Z 06010KT 12/M04 A3025 RMK A01 T01161039  RH  034%=      5-min Rain = 0
KLO1 162019Z 06009KT 12/M04 A3025 RMK A01 T01151038  RH  034%=      5-min Rain = 0
KLO1 162020Z 05012KT 12/M04 A3025 RMK A01 T01171037  RH  034%=      5-min Rain = 0
KLO1 162021Z 04012KT 12/M04 A3025 RMK A01 T01181038  RH  033%=      5-min Rain = 0
KLO1 162022Z 06015KT 12/M04 A3025 RMK A01 T01181038  RH  033%=      5-min Rain = 0
KLO1 162023Z 05016KT 12/M04 A3025 RMK A01 T01191038  RH  033%=      5-min Rain = 0
KLO1 162024Z 05013KT 12/M04 A3025 RMK A01 T01191039  RH  033%=      5-min Rain = 0
KLO1 162025Z 04013KT 12/M04 A3025 RMK A01 T01181038  RH  033%=      5-min Rain = 0
KLO1 162026Z 05009KT 12/M04 A3025 RMK A01 T01181040  RH  033%=      5-min Rain = 0
KLO1 162027Z 04011KT 12/M04 A3025 RMK A01 T01171038  RH  034%=      5-min Rain = 0
KLO1 162028Z 03012KT 12/M04 A3025 RMK A01 T01181038  RH  033%=      5-min Rain = 0
KLO1 162029Z 03015KT 12/M04 A3025 RMK A01 T01181038  RH  033%=      5-min Rain = 0
KLO1 162030Z 05014KT 12/M04 A3025 RMK A01 T01201037  RH  033%=      5-min Rain = 0
KLO1 162031Z 07012KT 12/M04 A3025 RMK A01 T01191038  RH  033%=      5-min Rain = 0
KLO1 162032Z 07009KT 12/M04 A3024 RMK A01 T01181038  RH  033%=      5-min Rain = 0
KLO1 162033Z 07012KT 12/M04 A3024 RMK A01 T01191037  RH  034%=      5-min Rain = 0
KLO1 162034Z 05012KT 12/M04 A3024 RMK A01 T01211036  RH  033%=      5-min Rain = 0
KLO1 162035Z 05011KT 12/M04 A3024 RMK A01 T01221036  RH  033%=      5-min Rain = 0
KLO1 162036Z 05012KT 12/M04 A3024 RMK A01 T01241035  RH  033%=      5-min Rain = 0
KLO1 162037Z 05013KT 12/M04 A3024 RMK A01 T01241035  RH  033%=      5-min Rain = 0
KLO1 162038Z 05011KT 13/M03 A3024 RMK A01 T01251034  RH  033%=      5-min Rain = 0
KLO1 162039Z 05011KT 13/M03 A3024 RMK A01 T01261034  RH  033%=      5-min Rain = 0
KLO1 162040Z 05011KT 13/M03 A3024 RMK A01 T01271034  RH  033%=      5-min Rain = 0
KLO1 162041Z 04014KT 13/M03 A3024 RMK A01 T01261033  RH  033%=      5-min Rain = 0
KLO1 162042Z 04016G22KT 13/M04 A3024 RMK A01 T01261035  RH  032%=      5-min Rain = 0
KLO1 162043Z 06017KT 12/M04 A3023 RMK A01 T01241036  RH  033%=      5-min Rain = 0
KLO1 162044Z 06014KT 12/M04 A3023 RMK A01 T01211037  RH  033%=      5-min Rain = 0
KLO1 162045Z 06015KT 12/M04 A3023 RMK A01 T01191037  RH  034%=      5-min Rain = 0
KLO1 162046Z 06013KT 12/M04 A3023 RMK A01 T01181036  RH  034%=      5-min Rain = 0
KLO1 162047Z 06014KT 12/M04 A3023 RMK A01 T01181035  RH  034%=      5-min Rain = 0
KLO1 162048Z 05014KT 12/M04 A3023 RMK A01 T01171036  RH  034%=      5-min Rain = 0
KLO1 162049Z 06013KT 12/M04 A3023 RMK A01 T01151037  RH  034%=      5-min Rain = 0
KLO1 162050Z 07011KT 11/M04 A3023 RMK A01 T01141036  RH  035%=      5-min Rain = 0
KLO1 162051Z 05012KT 11/M04 A3023 RMK A01 T01141035  RH  035%=      5-min Rain = 0
KLO1 162052Z 04013KT 12/M03 A3023 RMK A01 T01171034  RH  034%=      5-min Rain = 0
KLO1 162053Z 04013KT 12/M04 A3023 RMK A01 T01171036  RH  034%=      5-min Rain = 0
KLO1 162054Z 04015KT 12/M04 A3023 RMK A01 T01161036  RH  034%=      5-min Rain = 0
KLO1 162055Z 06014KT 12/M04 A3023 RMK A01 T01171035  RH  034%=      5-min Rain = 0
KLO1 162056Z 06014KT 12/M04 A3023 RMK A01 T01181036  RH  034%=      5-min Rain = 0
KLO1 162057Z 06011KT 12/M04 A3023 RMK A01 T01171036  RH  034%=      5-min Rain = 0
KLO1 162058Z 06010KT 12/M04 A3022 RMK A01 T01171035  RH  034%=      5-min Rain = 0
KLO1 162059Z 06013KT 12/M04 A3022 RMK A01 T01181036  RH  034%=      5-min Rain = 0
KLO1 162100Z 06010KT 12/M04 A3022 RMK A01 T01171036  RH  034%=      5-min Rain = 0
KLO1 162101Z 05011KT 12/M04 A3022 RMK A01 T01181035  RH  034%=      5-min Rain = 0
KLO1 162102Z 04016KT 12/M03 A3023 RMK A01 T01191034  RH  034%=      5-min Rain = 0
KLO1 162103Z 05015KT 12/M04 A3022 RMK A01 T01191035  RH  034%=      5-min Rain = 0
KLO1 162104Z 05013KT 12/M04 A3023 RMK A01 T01171036  RH  034%=      5-min Rain = 0
KLO1 162105Z 05012KT 12/M04 A3022 RMK A01 T01151036  RH  035%=      5-min Rain = 0
KLO1 162106Z 06011KT 11/M04 A3022 RMK A01 T01141036  RH  035%=      5-min Rain = 0
KLO1 162107Z 05012KT 11/M04 A3022 RMK A01 T01131036  RH  035%=      5-min Rain = 0
KLO1 162108Z 06013KT 11/M04 A3023 RMK A01 T01141035  RH  035%=      5-min Rain = 0
KLO1 162109Z 05012KT 12/M04 A3022 RMK A01 T01151035  RH  035%=      5-min Rain = 0
KLO1 162110Z 06011KT 11/M04 A3022 RMK A01 T01141036  RH  035%=      5-min Rain = 0
KLO1 162111Z 06011G18KT 11/M04 A3022 RMK A01 T01141035  RH  035%=      5-min Rain = 0
KLO1 162112Z 06013G18KT 12/M03 A3022 RMK A01 T01151034  RH  035%=      5-min Rain = 0
KLO1 162113Z 04013KT 12/M03 A3022 RMK A01 T01161034  RH  035%=      5-min Rain = 0
KLO1 162114Z 05013KT 12/M03 A3022 RMK A01 T01171034  RH  035%=      5-min Rain = 0
KLO1 162115Z 06014KT 12/M04 A3022 RMK A01 T01161035  RH  035%=      5-min Rain = 0
KLO1 162116Z 06010G15KT 12/M04 A3022 RMK A01 T01151035  RH  035%=      5-min Rain = 0
KLO1 162117Z 05013KT 12/M04 A3022 RMK A01 T01161035  RH  035%=      5-min Rain = 0
KLO1 162118Z 05012KT 12/M04 A3022 RMK A01 T01161035  RH  035%=      5-min Rain = 0
KLO1 162119Z 05013KT 12/M04 A3022 RMK A01 T01151036  RH  035%=      5-min Rain = 0
KLO1 162120Z 05012KT 12/M04 A3022 RMK A01 T01151035  RH  035%=      5-min Rain = 0
KLO1 162121Z 06010KT 12/M04 A3022 RMK A01 T01151035  RH  035%=      5-min Rain = 0
KLO1 162122Z 07008KT 12/M04 A3022 RMK A01 T01161035  RH  035%=      5-min Rain = 0
KLO1 162123Z 05014KT 12/M04 A3022 RMK A01 T01171035  RH  034%=      5-min Rain = 0
KLO1 162124Z 04015KT 12/M04 A3022 RMK A01 T01161036  RH  034%=      5-min Rain = 0
KLO1 162125Z 04015KT 12/M04 A3022 RMK A01 T01151036  RH  035%=      5-min Rain = 0
KLO1 162126Z 03015KT 12/M04 A3022 RMK A01 T01151035  RH  035%=      5-min Rain = 0
KLO1 162127Z 04015KT 12/M04 A3022 RMK A01 T01151035  RH  035%=      5-min Rain = 0
KLO1 162128Z 03016KT 12/M04 A3022 RMK A01 T01161035  RH  035%=      5-min Rain = 0
KLO1 162129Z 04015KT 12/M04 A3022 RMK A01 T01161035  RH  035%=      5-min Rain = 0
KLO1 162130Z 04014KT 12/M04 A3022 RMK A01 T01161035  RH  035%=      5-min Rain = 0
KLO1 162131Z 04012KT 11/M04 A3022 RMK A01 T01141036  RH  035%=      5-min Rain = 0
KLO1 162132Z 03012KT 12/M04 A3022 RMK A01 T01151035  RH  035%=      5-min Rain = 0
KLO1 162133Z 03011KT 12/M04 A3022 RMK A01 T01151035  RH  035%=      5-min Rain = 0
KLO1 162134Z 02010KT 12/M04 A3022 RMK A01 T01151035  RH  035%=      5-min Rain = 0
KLO1 162135Z 03012KT 12/M03 A3022 RMK A01 T01161034  RH  035%=      5-min Rain = 0
KLO1 162136Z 04011KT 12/M03 A3022 RMK A01 T01171034  RH  035%=      5-min Rain = 0
KLO1 162137Z 04010KT 12/M04 A3022 RMK A01 T01161035  RH  035%=      5-min Rain = 0
KLO1 162138Z 05011KT 12/M03 A3022 RMK A01 T01161034  RH  035%=      5-min Rain = 0
KLO1 162139Z 04011KT 12/M04 A3022 RMK A01 T01161035  RH  035%=      5-min Rain = 0
KLO1 162140Z 04011KT 12/M03 A3022 RMK A01 T01151034  RH  035%=      5-min Rain = 0
KLO1 162141Z 03013KT 12/M03 A3022 RMK A01 T01161034  RH  035%=      5-min Rain = 0
KLO1 162142Z 03013KT 12/M04 A3022 RMK A01 T01151035  RH  035%=      5-min Rain = 0
KLO1 162143Z 04012KT 11/M04 A3022 RMK A01 T01141035  RH  035%=      5-min Rain = 0
KLO1 162144Z 04013KT 11/M04 A3022 RMK A01 T01131035  RH  035%=      5-min Rain = 0
KLO1 162145Z 05015KT 11/M04 A3022 RMK A01 T01141035  RH  035%=      5-min Rain = 0
KLO1 162146Z 05013KT 11/M03 A3022 RMK A01 T01141034  RH  035%=      5-min Rain = 0
KLO1 162147Z 06011KT 11/M03 A3022 RMK A01 T01141034  RH  035%=      5-min Rain = 0
KLO1 162148Z 06009KT 11/M03 A3022 RMK A01 T01141034  RH  035%=      5-min Rain = 0
KLO1 162149Z 03010KT 12/M03 A3022 RMK A01 T01151033  RH  035%=      5-min Rain = 0
KLO1 162150Z 04013KT 12/M03 A3022 RMK A01 T01181032  RH  035%=      5-min Rain = 0
KLO1 162151Z 06011KT 12/M04 A3022 RMK A01 T01171035  RH  035%=      5-min Rain = 0
KLO1 162152Z 06010KT 12/M04 A3021 RMK A01 T01151035  RH  035%=      5-min Rain = 0
KLO1 162153Z 05013KT 11/M04 A3021 RMK A01 T01141035  RH  035%=      5-min Rain = 0
KLO1 162154Z 04014KT 11/M04 A3021 RMK A01 T01131035  RH  035%=      5-min Rain = 0
KLO1 162155Z 06013KT 11/M04 A3021 RMK A01 T01131035  RH  035%=      5-min Rain = 0
KLO1 162156Z 04011KT 11/M04 A3021 RMK A01 T01121035  RH  036%=      5-min Rain = 0
KLO1 162157Z 05009KT 11/M04 A3021 RMK A01 T01121035  RH  036%=      5-min Rain = 0
KLO1 162158Z 05011KT 11/M04 A3021 RMK A01 T01111035  RH  036%=      5-min Rain = 0
KLO1 162159Z 05014KT 11/M03 A3021 RMK A01 T01131034  RH  036%=      5-min Rain = 0
KLO1 162200Z 06012KT 11/M04 A3021 RMK A01 T01121035  RH  035%=      5-min Rain = 0
KLO1 162201Z 05010KT 11/M04 A3021 RMK A01 T01111035  RH  036%=      5-min Rain = 0
KLO1 162202Z 06009KT 11/M04 A3021 RMK A01 T01111035  RH  036%=      5-min Rain = 0
KLO1 162203Z 05011KT 11/M04 A3021 RMK A01 T01111035  RH  036%=      5-min Rain = 0
KLO1 162204Z 06013KT 11/M04 A3021 RMK A01 T01111035  RH  036%=      5-min Rain = 0
KLO1 162205Z 05011KT 11/M04 A3021 RMK A01 T01121035  RH  036%=      5-min Rain = 0
KLO1 162206Z 05010KT 11/M03 A3021 RMK A01 T01131034  RH  036%=      5-min Rain = 0
KLO1 162207Z 06009KT 11/M04 A3021 RMK A01 T01131035  RH  035%=      5-min Rain = 0
KLO1 162208Z 06009KT 11/M04 A3021 RMK A01 T01121036  RH  035%=      5-min Rain = 0
KLO1 162209Z 05009KT 11/M03 A3021 RMK A01 T01121034  RH  036%=      5-min Rain = 0
KLO1 162210Z 05014KT 11/M03 A3021 RMK A01 T01131034  RH  036%=      5-min Rain = 0
KLO1 162211Z 04011KT 12/M03 A3021 RMK A01 T01151034  RH  035%=      5-min Rain = 0
KLO1 162212Z 04010KT 12/M03 A3021 RMK A01 T01161034  RH  035%=      5-min Rain = 0
KLO1 162213Z 03012G17KT 12/M03 A3021 RMK A01 T01151034  RH  035%=      5-min Rain = 0
KLO1 162214Z 04013KT 12/M03 A3021 RMK A01 T01161034  RH  035%=      5-min Rain = 0
KLO1 162215Z 06009KT 12/M03 A3021 RMK A01 T01161034  RH  035%=      5-min Rain = 0
KLO1 162216Z 08010KT 12/M03 A3021 RMK A01 T01151034  RH  035%=      5-min Rain = 0
KLO1 162217Z 06010KT 12/M03 A3021 RMK A01 T01151034  RH  035%=      5-min Rain = 0
KLO1 162218Z 05012KT 12/M03 A3021 RMK A01 T01151034  RH  035%=      5-min Rain = 0
KLO1 162219Z 05011KT 12/M03 A3021 RMK A01 T01151034  RH  035%=      5-min Rain = 0
KLO1 162220Z 05009KT 11/M04 A3021 RMK A01 T01141035  RH  035%=      5-min Rain = 0
KLO1 162221Z 07009KT 11/M04 A3021 RMK A01 T01141035  RH  035%=      5-min Rain = 0
KLO1 162222Z 08010KT 11/M04 A3021 RMK A01 T01131035  RH  035%=      5-min Rain = 0
KLO1 162223Z 06011G16KT 11/M04 A3021 RMK A01 T01121035  RH  035%=      5-min Rain = 0
KLO1 162224Z 06011KT 11/M04 A302 RMK A01 T01121035  RH  035%=      5-min Rain = 0
KLO1 162225Z 06011KT 11/M04 A302 RMK A01 T01121035  RH  035%=      5-min Rain = 0
KLO1 162226Z 07009KT 11/M04 A302 RMK A01 T01121036  RH  035%=      5-min Rain = 0
KLO1 162227Z 06012KT 11/M04 A302 RMK A01 T01111035  RH  036%=      5-min Rain = 0
KLO1 162228Z 06009KT 11/M04 A302 RMK A01 T01121035  RH  036%=      5-min Rain = 0
KLO1 162229Z 06013KT 11/M04 A302 RMK A01 T01121035  RH  036%=      5-min Rain = 0
KLO1 162230Z 06010KT 11/M04 A302 RMK A01 T01121035  RH  036%=      5-min Rain = 0
KLO1 162231Z 04011KT 11/M04 A302 RMK A01 T01111035  RH  036%=      5-min Rain = 0
KLO1 162232Z 05014KT 11/M04 A302 RMK A01 T01121035  RH  036%=      5-min Rain = 0
KLO1 162233Z 07013KT 11/M04 A302 RMK A01 T01111036  RH  036%=      5-min Rain = 0
KLO1 162234Z 06010KT 11/M04 A302 RMK A01 T01101036  RH  036%=      5-min Rain = 0
KLO1 162235Z 06012KT 11/M04 A302 RMK A01 T01101035  RH  036%=      5-min Rain = 0
KLO1 162236Z 07010KT 11/M04 A302 RMK A01 T01101036  RH  036%=      5-min Rain = 0
KLO1 162237Z 07009KT 11/M04 A302 RMK A01 T01101035  RH  036%=      5-min Rain = 0
KLO1 162238Z 07009KT 11/M04 A302 RMK A01 T01111035  RH  036%=      5-min Rain = 0
KLO1 162239Z 07009KT 11/M04 A302 RMK A01 T01111035  RH  036%=      5-min Rain = 0
KLO1 162240Z 07009KT 11/M04 A302 RMK A01 T01101036  RH  036%=      5-min Rain = 0
KLO1 162241Z 07009G14KT 11/M04 A302 RMK A01 T01101036  RH  036%=      5-min Rain = 0
KLO1 162242Z 05012KT 11/M04 A302 RMK A01 T01111035  RH  036%=      5-min Rain = 0
KLO1 162243Z 05011KT 11/M04 A302 RMK A01 T01101036  RH  036%=      5-min Rain = 0
KLO1 162244Z 05011KT 11/M04 A302 RMK A01 T01101036  RH  036%=      5-min Rain = 0
KLO1 162245Z 06010KT 11/M04 A302 RMK A01 T01091036  RH  036%=      5-min Rain = 0
KLO1 162246Z 06011KT 11/M04 A302 RMK A01 T01091036  RH  036%=      5-min Rain = 0
KLO1 162247Z 07012KT 11/M04 A302 RMK A01 T01091037  RH  036%=      5-min Rain = 0
KLO1 162248Z 08010KT 11/M04 A302 RMK A01 T01081037  RH  036%=      5-min Rain = 0
KLO1 162249Z 07009KT 11/M04 A302 RMK A01 T01081037  RH  036%=      5-min Rain = 0
KLO1 162250Z 06010KT 11/M04 A302 RMK A01 T01081037  RH  036%=      5-min Rain = 0
KLO1 162251Z 06010KT 11/M04 A302 RMK A01 T01091036  RH  036%=      5-min Rain = 0
KLO1 162252Z 08009KT 11/M04 A302 RMK A01 T01091037  RH  036%=      5-min Rain = 0
KLO1 162253Z 08010KT 11/M04 A302 RMK A01 T01081037  RH  036%=      5-min Rain = 0
KLO1 162254Z 07009KT 11/M04 A302 RMK A01 T01081037  RH  036%=      5-min Rain = 0
KLO1 162255Z 07009KT 11/M04 A302 RMK A01 T01081037  RH  036%=      5-min Rain = 0
KLO1 162256Z 07009KT 11/M04 A302 RMK A01 T01081037  RH  036%=      5-min Rain = 0
KLO1 162257Z 06009G14KT 11/M04 A302 RMK A01 T01081037  RH  036%=      5-min Rain = 0
KLO1 162258Z 07011KT 11/M04 A302 RMK A01 T01071037  RH  036%=      5-min Rain = 0
KLO1 162259Z 08012KT 11/M04 A302 RMK A01 T01071037  RH  036%=      5-min Rain = 0
KLO1 162300Z 08011KT 11/M04 A302 RMK A01 T01071037  RH  036%=      5-min Rain = 0
KLO1 162301Z 08010KT 11/M04 A302 RMK A01 T01071037  RH  036%=      5-min Rain = 0
KLO1 162302Z 08011KT 11/M04 A302 RMK A01 T01071037  RH  036%=      5-min Rain = 0
KLO1 162303Z 08012KT 11/M04 A302 RMK A01 T01081037  RH  036%=      5-min Rain = 0
KLO1 162304Z 08011KT 11/M04 A302 RMK A01 T01081037  RH  036%=      5-min Rain = 0
KLO1 162305Z 07010G15KT 11/M04 A302 RMK A01 T01081037  RH  036%=      5-min Rain = 0
KLO1 162306Z 07011KT 11/M04 A302 RMK A01 T01081037  RH  036%=      5-min Rain = 0
KLO1 162307Z 07009KT 11/M04 A302 RMK A01 T01081037  RH  036%=      5-min Rain = 0
KLO1 162308Z 07008KT 11/M04 A302 RMK A01 T01081036  RH  036%=      5-min Rain = 0
KLO1 162309Z 07007KT 11/M04 A302 RMK A01 T01081037  RH  036%=      5-min Rain = 0
KLO1 162310Z 07012KT 11/M04 A302 RMK A01 T01081036  RH  036%=      5-min Rain = 0
KLO1 162311Z 08011KT 11/M04 A302 RMK A01 T01091036  RH  036%=      5-min Rain = 0
KLO1 162312Z 07010KT 11/M04 A302 RMK A01 T01091037  RH  036%=      5-min Rain = 0
KLO1 162313Z 06009KT 11/M04 A3019 RMK A01 T01091037  RH  036%=      5-min Rain = 0
KLO1 162314Z 07008KT 11/M04 A3019 RMK A01 T01091037  RH  036%=      5-min Rain = 0
KLO1 162315Z 08008KT 11/M04 A3019 RMK A01 T01091037  RH  036%=      5-min Rain = 0
KLO1 162316Z 08011KT 11/M04 A3019 RMK A01 T01101037  RH  036%=      5-min Rain = 0
KLO1 162317Z 08011KT 11/M04 A3019 RMK A01 T01101037  RH  035%=      5-min Rain = 0
KLO1 162318Z 07012KT 11/M04 A3019 RMK A01 T01091038  RH  035%=      5-min Rain = 0
KLO1 162319Z 08011KT 11/M04 A3019 RMK A01 T01071039  RH  036%=      5-min Rain = 0
KLO1 162320Z 09011KT 11/M04 A3019 RMK A01 T01061039  RH  036%=      5-min Rain = 0
KLO1 162321Z 07010KT 11/M04 A3019 RMK A01 T01061038  RH  036%=      5-min Rain = 0
KLO1 162322Z 08012KT 11/M04 A3019 RMK A01 T01061038  RH  036%=      5-min Rain = 0
KLO1 162323Z 08012KT 11/M04 A3019 RMK A01 T01061038  RH  036%=      5-min Rain = 0
KLO1 162324Z 08011KT 11/M04 A3019 RMK A01 T01051038  RH  036%=      5-min Rain = 0
KLO1 162325Z 08010KT 10/M04 A3019 RMK A01 T01041038  RH  037%=      5-min Rain = 0
KLO1 162326Z 08010KT 11/M04 A3019 RMK A01 T01051038  RH  037%=      5-min Rain = 0
KLO1 162327Z 08011KT 11/M04 A3019 RMK A01 T01051038  RH  036%=      5-min Rain = 0
KLO1 162328Z 08011KT 11/M04 A3019 RMK A01 T01051038  RH  036%=      5-min Rain = 0
KLO1 162329Z 09009KT 10/M04 A3019 RMK A01 T01041038  RH  036%=      5-min Rain = 0
KLO1 162330Z 08011KT 10/M04 A3019 RMK A01 T01041038  RH  036%=      5-min Rain = 0
KLO1 162331Z 08009KT 10/M04 A3019 RMK A01 T01041039  RH  036%=      5-min Rain = 0
KLO1 162332Z 08011KT 10/M04 A3019 RMK A01 T01041038  RH  036%=      5-min Rain = 0
KLO1 162333Z 07011KT 10/M04 A3019 RMK A01 T01041039  RH  036%=      5-min Rain = 0
KLO1 162334Z 07012KT 10/M04 A3019 RMK A01 T01031039  RH  036%=      5-min Rain = 0
KLO1 162335Z 08011KT 10/M04 A3019 RMK A01 T01021039  RH  037%=      5-min Rain = 0
KLO1 162336Z 08011KT 10/M04 A3019 RMK A01 T01021038  RH  037%=      5-min Rain = 0
KLO1 162337Z 08010KT 10/M04 A3019 RMK A01 T01031038  RH  037%=      5-min Rain = 0
KLO1 162338Z 08011KT 10/M04 A3019 RMK A01 T01031038  RH  037%=      5-min Rain = 0
KLO1 162339Z 08010KT 10/M04 A3019 RMK A01 T01021038  RH  037%=      5-min Rain = 0
KLO1 162340Z 08009KT 10/M04 A3019 RMK A01 T01031038  RH  037%=      5-min Rain = 0
KLO1 162341Z 08009KT 10/M04 A3019 RMK A01 T01031038  RH  037%=      5-min Rain = 0
KLO1 162342Z 08008KT 10/M04 A3019 RMK A01 T01031038  RH  037%=      5-min Rain = 0
KLO1 162343Z 08010KT 10/M04 A3019 RMK A01 T01031038  RH  037%=      5-min Rain = 0
KLO1 162344Z 08009KT 10/M04 A3019 RMK A01 T01021039  RH  037%=      5-min Rain = 0
KLO1 162345Z 08009KT 10/M04 A3019 RMK A01 T01021039  RH  037%=      5-min Rain = 0
KLO1 162346Z 07009KT 10/M04 A3019 RMK A01 T01021039  RH  037%=      5-min Rain = 0
KLO1 162347Z 07011KT 10/M04 A3019 RMK A01 T01021039  RH  037%=      5-min Rain = 0
KLO1 162348Z 08009KT 10/M04 A3019 RMK A01 T01011040  RH  037%=      5-min Rain = 0
KLO1 162349Z 08008KT 10/M04 A3019 RMK A01 T01011040  RH  037%=      5-min Rain = 0
KLO1 162350Z 07009KT 10/M04 A3019 RMK A01 T01011040  RH  037%=      5-min Rain = 0
KLO1 162351Z 07009KT 10/M04 A3019 RMK A01 T01011040  RH  037%=      5-min Rain = 0
KLO1 162352Z 07008KT 10/M04 A3019 RMK A01 T01011040  RH  037%=      5-min Rain = 0
KLO1 162353Z 07009KT 10/M04 A3019 RMK A01 T01001040  RH  037%=      5-min Rain = 0
KLO1 162354Z 08009KT 10/M04 A3019 RMK A01 T01001040  RH  037%=      5-min Rain = 0
KLO1 162355Z 08009KT 10/M04 A3019 RMK A01 T01001040  RH  037%=      5-min Rain = 0
KLO1 162356Z 08010KT 10/M04 A3019 RMK A01 T01001040  RH  037%=      5-min Rain = 0
KLO1 162357Z 08009KT 10/M04 A3019 RMK A01 T01001039  RH  037%=      5-min Rain = 0
KLO1 162358Z 09009KT 10/M04 A3018 RMK A01 T01001039  RH  037%=      5-min Rain = 0
KLO1 162359Z 09012KT 10/M04 A3019 RMK A01 T01011039  RH  037%=      5-min Rain = 0
KLO1 170000Z 08011KT 10/M04 A3019 RMK A01 T01011039  RH  037%=      5-min Rain = 0
KLO1 170001Z 09011KT 10/M04 A3019 RMK A01 T01001040  RH  037%=      5-min Rain = 0
KLO1 170002Z 08009KT 10/M04 A3019 RMK A01 T01001040  RH  037%=      5-min Rain = 0
KLO1 170003Z 08010KT 10/M04 A3019 RMK A01 T01001040  RH  037%=      5-min Rain = 0
KLO1 170004Z 09009KT 10/M04 A3019 RMK A01 T01001040  RH  037%=      5-min Rain = 0
KLO1 170005Z 09009KT 10/M04 A3019 RMK A01 T01001039  RH  037%=      5-min Rain = 0
KLO1 170006Z 08011KT 10/M04 A3019 RMK A01 T01001039  RH  037%=      5-min Rain = 0
KLO1 170007Z 09010KT 10/M04 A3019 RMK A01 T01001040  RH  037%=      5-min Rain = 0
KLO1 170008Z 09009KT 10/M04 A3019 RMK A01 T01001039  RH  037%=      5-min Rain = 0
KLO1 170009Z 09010KT 10/M04 A3019 RMK A01 T00991040  RH  037%=      5-min Rain = 0
KLO1 170010Z 08010KT 10/M04 A3019 RMK A01 T00991040  RH  037%=      5-min Rain = 0
KLO1 170011Z 09009KT 10/M04 A3019 RMK A01 T00991040  RH  037%=      5-min Rain = 0
KLO1 170012Z 08008KT 10/M04 A3019 RMK A01 T00991040  RH  037%=      5-min Rain = 0
KLO1 170013Z 08008KT 10/M04 A3019 RMK A01 T00991040  RH  037%=      5-min Rain = 0
KLO1 170014Z 08008KT 10/M04 A3018 RMK A01 T00981040  RH  037%=      5-min Rain = 0
KLO1 170015Z 08008KT 10/M04 A3018 RMK A01 T00981040  RH  038%=      5-min Rain = 0
KLO1 170016Z 08007KT 10/M04 A3018 RMK A01 T00981040  RH  038%=      5-min Rain = 0
KLO1 170017Z 08007KT 10/M04 A3018 RMK A01 T00981040  RH  038%=      5-min Rain = 0
KLO1 170018Z 09009KT 10/M04 A3018 RMK A01 T00981040  RH  038%=      5-min Rain = 0
KLO1 170019Z 09009KT 10/M04 A3018 RMK A01 T00981040  RH  038%=      5-min Rain = 0
KLO1 170020Z 09008KT 10/M04 A3018 RMK A01 T00981040  RH  038%=      5-min Rain = 0
KLO1 170021Z 09010KT 10/M04 A3018 RMK A01 T00981040  RH  038%=      5-min Rain = 0
KLO1 170022Z 08009KT 10/M04 A3018 RMK A01 T00981040  RH  038%=      5-min Rain = 0
KLO1 170023Z 08006KT 10/M04 A3018 RMK A01 T00981040  RH  038%=      5-min Rain = 0
KLO1 170024Z 08008KT 10/M04 A3018 RMK A01 T00981040  RH  038%=      5-min Rain = 0
KLO1 170025Z 08009KT 10/M04 A3018 RMK A01 T00981040  RH  038%=      5-min Rain = 0
KLO1 170026Z 08009KT 10/M04 A3018 RMK A01 T00971040  RH  038%=      5-min Rain = 0
KLO1 170027Z 07008KT 10/M04 A3018 RMK A01 T00971040  RH  038%=      5-min Rain = 0
KLO1 170028Z 08009KT 10/M04 A3018 RMK A01 T00971040  RH  038%=      5-min Rain = 0
KLO1 170029Z 08009KT 10/M04 A3018 RMK A01 T00971040  RH  038%=      5-min Rain = 0
KLO1 170030Z 08009KT 10/M04 A3018 RMK A01 T00971040  RH  038%=      5-min Rain = 0
KLO1 170031Z 09008KT 10/M04 A3019 RMK A01 T00961040  RH  038%=      5-min Rain = 0
KLO1 170032Z 09008KT 10/M04 A3019 RMK A01 T00961040  RH  038%=      5-min Rain = 0
KLO1 170033Z 08009KT 10/M04 A3019 RMK A01 T00961040  RH  038%=      5-min Rain = 0
KLO1 170034Z 08008KT 10/M04 A3019 RMK A01 T00961040  RH  038%=      5-min Rain = 0
KLO1 170035Z 08009KT 10/M04 A3019 RMK A01 T00961040  RH  038%=      5-min Rain = 0
KLO1 170036Z 09008KT 10/M04 A3019 RMK A01 T00961040  RH  038%=      5-min Rain = 0
KLO1 170037Z 09008KT 10/M04 A3019 RMK A01 T00961041  RH  038%=      5-min Rain = 0
KLO1 170038Z 09007KT 10/M04 A3019 RMK A01 T00961041  RH  038%=      5-min Rain = 0
KLO1 170039Z 09006KT 10/M04 A3019 RMK A01 T00961040  RH  038%=      5-min Rain = 0
KLO1 170040Z 08007KT 10/M04 A3019 RMK A01 T00961041  RH  038%=      5-min Rain = 0
KLO1 170041Z 08009KT 10/M04 A3018 RMK A01 T00951041  RH  038%=      5-min Rain = 0
KLO1 170042Z 08009KT 10/M04 A3019 RMK A01 T00951041  RH  038%=      5-min Rain = 0
KLO1 170043Z 08008KT 10/M04 A3018 RMK A01 T00951042  RH  038%=      5-min Rain = 0
KLO1 170044Z 08009KT 09/M04 A3019 RMK A01 T00941042  RH  038%=      5-min Rain = 0
KLO1 170045Z 08008KT 09/M04 A3019 RMK A01 T00941042  RH  038%=      5-min Rain = 0
KLO1 170046Z 09009KT 09/M04 A3019 RMK A01 T00931042  RH  038%=      5-min Rain = 0
KLO1 170047Z 08009KT 09/M04 A3019 RMK A01 T00931043  RH  038%=      5-min Rain = 0
KLO1 170048Z 08009KT 09/M04 A3019 RMK A01 T00931043  RH  038%=      5-min Rain = 0
KLO1 170049Z 08010KT 09/M04 A3019 RMK A01 T00931043  RH  038%=      5-min Rain = 0
KLO1 170050Z 08008KT 09/M04 A3019 RMK A01 T00931043  RH  038%=      5-min Rain = 0
KLO1 170051Z 09007KT 09/M04 A3019 RMK A01 T00931043  RH  038%=      5-min Rain = 0
KLO1 170052Z 08008KT 09/M04 A3019 RMK A01 T00921043  RH  038%=      5-min Rain = 0
KLO1 170053Z 09008KT 09/M04 A3019 RMK A01 T00921043  RH  038%=      5-min Rain = 0
KLO1 170054Z 09008KT 09/M04 A3019 RMK A01 T00921043  RH  038%=      5-min Rain = 0
KLO1 170055Z 09008KT 09/M04 A3019 RMK A01 T00921044  RH  038%=      5-min Rain = 0
KLO1 170056Z 09008KT 09/M04 A3019 RMK A01 T00921044  RH  038%=      5-min Rain = 0
KLO1 170057Z 08007KT 09/M04 A3019 RMK A01 T00921044  RH  038%=      5-min Rain = 0
KLO1 170058Z 08006KT 09/M04 A3019 RMK A01 T00921044  RH  038%=      5-min Rain = 0
KLO1 170059Z 07007KT 09/M04 A3018 RMK A01 T00921044  RH  038%=      5-min Rain = 0
KLO1 170100Z 08006KT 09/M04 A3018 RMK A01 T00921044  RH  038%=      5-min Rain = 0
KLO1 170101Z 08005KT 09/M04 A3018 RMK A01 T00911044  RH  038%=      5-min Rain = 0
KLO1 170102Z 08008KT 09/M04 A3018 RMK A01 T00911044  RH  038%=      5-min Rain = 0
KLO1 170103Z 08008KT 09/M04 A3018 RMK A01 T00911044  RH  038%=      5-min Rain = 0
KLO1 170104Z 08006KT 09/M04 A3018 RMK A01 T00911044  RH  038%=      5-min Rain = 0
KLO1 170105Z 08006KT 09/M04 A3018 RMK A01 T00911044  RH  038%=      5-min Rain = 0
KLO1 170106Z 08007KT 09/M04 A3018 RMK A01 T00911044  RH  038%=      5-min Rain = 0
KLO1 170107Z 08008KT 09/M04 A3018 RMK A01 T00911044  RH  038%=      5-min Rain = 0
KLO1 170108Z 08008KT 09/M04 A3018 RMK A01 T00901044  RH  038%=      5-min Rain = 0
KLO1 170109Z 08006KT 09/M04 A3018 RMK A01 T00901044  RH  038%=      5-min Rain = 0
KLO1 170110Z 08008KT 09/M04 A3018 RMK A01 T00901044  RH  038%=      5-min Rain = 0
KLO1 170111Z 08008KT 09/M04 A3018 RMK A01 T00901044  RH  038%=      5-min Rain = 0
KLO1 170112Z 08006KT 09/M04 A3018 RMK A01 T00901044  RH  038%=      5-min Rain = 0
KLO1 170113Z 08006KT 09/M04 A3018 RMK A01 T00901044  RH  038%=      5-min Rain = 0
KLO1 170114Z 08006KT 09/M04 A3018 RMK A01 T00901044  RH  038%=      5-min Rain = 0
KLO1 170115Z 08006KT 09/M04 A3018 RMK A01 T00901044  RH  038%=      5-min Rain = 0
KLO1 170116Z 08007KT 09/M04 A3018 RMK A01 T00901044  RH  039%=      5-min Rain = 0
KLO1 170117Z 09007KT 09/M04 A3018 RMK A01 T00901044  RH  039%=      5-min Rain = 0
KLO1 170118Z 08008KT 09/M04 A3018 RMK A01 T00901044  RH  039%=      5-min Rain = 0
KLO1 170119Z 08008KT 09/M04 A3018 RMK A01 T00901044  RH  039%=      5-min Rain = 0
KLO1 170120Z 08008KT 09/M04 A3018 RMK A01 T00901044  RH  039%=      5-min Rain = 0
KLO1 170121Z 08006KT 09/M04 A3018 RMK A01 T00901044  RH  039%=      5-min Rain = 0
KLO1 170122Z 08006KT 09/M04 A3018 RMK A01 T00901044  RH  039%=      5-min Rain = 0
KLO1 170123Z 08007KT 09/M04 A3018 RMK A01 T00901044  RH  039%=      5-min Rain = 0
KLO1 170124Z 08007KT 09/M04 A3018 RMK A01 T00901044  RH  039%=      5-min Rain = 0
KLO1 170125Z 08007KT 09/M04 A3017 RMK A01 T00891044  RH  039%=      5-min Rain = 0
KLO1 170126Z 08006KT 09/M04 A3017 RMK A01 T00891044  RH  039%=      5-min Rain = 0
KLO1 170127Z 08005KT 09/M04 A3018 RMK A01 T00891044  RH  039%=      5-min Rain = 0
KLO1 170128Z 07006KT 09/M04 A3018 RMK A01 T00891044  RH  039%=      5-min Rain = 0
KLO1 170129Z 08005KT 09/M04 A3018 RMK A01 T00891044  RH  039%=      5-min Rain = 0
KLO1 170130Z 08006KT 09/M04 A3018 RMK A01 T00891043  RH  039%=      5-min Rain = 0
KLO1 170131Z 08005KT 09/M04 A3018 RMK A01 T00881043  RH  039%=      5-min Rain = 0
KLO1 170132Z 08006KT 09/M04 A3018 RMK A01 T00881043  RH  039%=      5-min Rain = 0
KLO1 170133Z 09005KT 09/M04 A3018 RMK A01 T00881043  RH  039%=      5-min Rain = 0
KLO1 170134Z 09006KT 09/M04 A3018 RMK A01 T00881043  RH  039%=      5-min Rain = 0
KLO1 170135Z 09006KT 09/M04 A3018 RMK A01 T00881044  RH  039%=      5-min Rain = 0
KLO1 170136Z 09006KT 09/M04 A3017 RMK A01 T00881044  RH  039%=      5-min Rain = 0
KLO1 170137Z 10007KT 09/M04 A3017 RMK A01 T00881044  RH  039%=      5-min Rain = 0
KLO1 170138Z 09006KT 09/M04 A3017 RMK A01 T00881044  RH  039%=      5-min Rain = 0
KLO1 170139Z 09007KT 09/M04 A3017 RMK A01 T00881044  RH  039%=      5-min Rain = 0
KLO1 170140Z 09006KT 09/M04 A3017 RMK A01 T00881044  RH  039%=      5-min Rain = 0
KLO1 170141Z 09006KT 09/M04 A3017 RMK A01 T00881044  RH  039%=      5-min Rain = 0
KLO1 170142Z 09007KT 09/M04 A3017 RMK A01 T00881044  RH  039%=      5-min Rain = 0
KLO1 170143Z 09006KT 09/M04 A3017 RMK A01 T00881044  RH  039%=      5-min Rain = 0
KLO1 170144Z 09006KT 09/M04 A3017 RMK A01 T00871044  RH  039%=      5-min Rain = 0
KLO1 170145Z 09006KT 09/M04 A3016 RMK A01 T00871044  RH  039%=      5-min Rain = 0
KLO1 170146Z 09006KT 09/M04 A3016 RMK A01 T00871044  RH  039%=      5-min Rain = 0
KLO1 170147Z 09006KT 09/M04 A3016 RMK A01 T00871044  RH  039%=      5-min Rain = 0
KLO1 170148Z 09007KT 09/M04 A3016 RMK A01 T00871044  RH  039%=      5-min Rain = 0
KLO1 170149Z 09009KT 09/M04 A3016 RMK A01 T00871044  RH  039%=      5-min Rain = 0
KLO1 170150Z 09007KT 09/M04 A3016 RMK A01 T00871044  RH  039%=      5-min Rain = 0
KLO1 170151Z 08007KT 09/M04 A3016 RMK A01 T00871044  RH  039%=      5-min Rain = 0
KLO1 170152Z 08007KT 09/M04 A3016 RMK A01 T00871044  RH  039%=      5-min Rain = 0
KLO1 170153Z 09007KT 09/M04 A3016 RMK A01 T00861044  RH  039%=      5-min Rain = 0
KLO1 170154Z 08007KT 09/M04 A3017 RMK A01 T00861044  RH  040%=      5-min Rain = 0
KLO1 170155Z 08006KT 09/M04 A3017 RMK A01 T00861044  RH  040%=      5-min Rain = 0
KLO1 170156Z 07005KT 09/M04 A3017 RMK A01 T00861044  RH  040%=      5-min Rain = 0
KLO1 170157Z 08007KT 09/M04 A3017 RMK A01 T00861044  RH  040%=      5-min Rain = 0
KLO1 170158Z 07007KT 09/M04 A3017 RMK A01 T00861044  RH  040%=      5-min Rain = 0
KLO1 170159Z 08007KT 09/M04 A3017 RMK A01 T00861044  RH  040%=      5-min Rain = 0
KLO1 170200Z 08006KT 09/M04 A3017 RMK A01 T00851044  RH  040%=      5-min Rain = 0
KLO1 170201Z 07006KT 09/M04 A3017 RMK A01 T00851044  RH  040%=      5-min Rain = 0
KLO1 170202Z 08005KT 09/M04 A3017 RMK A01 T00851044  RH  040%=      5-min Rain = 0
KLO1 170203Z 08006KT 09/M04 A3017 RMK A01 T00851044  RH  040%=      5-min Rain = 0
KLO1 170204Z 08005KT 09/M04 A3017 RMK A01 T00851044  RH  040%=      5-min Rain = 0
KLO1 170205Z 08006KT 09/M04 A3017 RMK A01 T00851044  RH  040%=      5-min Rain = 0
KLO1 170206Z 08005KT 09/M04 A3017 RMK A01 T00851044  RH  040%=      5-min Rain = 0
KLO1 170207Z 07005KT 08/M04 A3017 RMK A01 T00841044  RH  040%=      5-min Rain = 0
KLO1 170208Z 07004KT 08/M04 A3017 RMK A01 T00841044  RH  040%=      5-min Rain = 0
KLO1 170209Z 08006KT 08/M04 A3017 RMK A01 T00841044  RH  040%=      5-min Rain = 0
KLO1 170210Z 08005KT 08/M04 A3017 RMK A01 T00841044  RH  040%=      5-min Rain = 0
KLO1 170211Z 08005KT 08/M04 A3017 RMK A01 T00831044  RH  040%=      5-min Rain = 0
KLO1 170212Z 08006KT 08/M04 A3017 RMK A01 T00831044  RH  040%=      5-min Rain = 0
KLO1 170213Z 08005KT 08/M04 A3017 RMK A01 T00831044  RH  040%=      5-min Rain = 0
KLO1 170214Z 08007KT 08/M04 A3017 RMK A01 T00831044  RH  040%=      5-min Rain = 0
KLO1 170215Z 08005KT 08/M04 A3017 RMK A01 T00821044  RH  040%=      5-min Rain = 0
KLO1 170216Z 08005KT 08/M04 A3016 RMK A01 T00821044  RH  040%=      5-min Rain = 0
KLO1 170217Z 08005KT 08/M04 A3016 RMK A01 T00821044  RH  040%=      5-min Rain = 0
KLO1 170218Z 08007KT 08/M04 A3016 RMK A01 T00821044  RH  040%=      5-min Rain = 0
KLO1 170219Z 08006KT 08/M04 A3016 RMK A01 T00821044  RH  041%=      5-min Rain = 0
KLO1 170220Z 08006KT 08/M04 A3016 RMK A01 T00821044  RH  041%=      5-min Rain = 0
KLO1 170221Z 08006KT 08/M04 A3016 RMK A01 T00821044  RH  041%=      5-min Rain = 0
KLO1 170222Z 09006KT 08/M04 A3016 RMK A01 T00821044  RH  041%=      5-min Rain = 0
KLO1 170223Z 09006KT 08/M05 A3016 RMK A01 T00821045  RH  040%=      5-min Rain = 0
KLO1 170224Z 09006KT 08/M05 A3015 RMK A01 T00821045  RH  040%=      5-min Rain = 0
KLO1 170225Z 09007KT 08/M05 A3015 RMK A01 T00821045  RH  040%=      5-min Rain = 0
KLO1 170226Z 09007KT 08/M05 A3015 RMK A01 T00821045  RH  041%=      5-min Rain = 0
KLO1 170227Z 09007KT 08/M05 A3015 RMK A01 T00811045  RH  041%=      5-min Rain = 0
KLO1 170228Z 09007KT 08/M05 A3015 RMK A01 T00811045  RH  041%=      5-min Rain = 0
KLO1 170229Z 09007KT 08/M04 A3015 RMK A01 T00811044  RH  041%=      5-min Rain = 0
KLO1 170230Z 09006KT 08/M05 A3015 RMK A01 T00811045  RH  041%=      5-min Rain = 0
KLO1 170231Z 09007KT 08/M04 A3014 RMK A01 T00811044  RH  041%=      5-min Rain = 0
KLO1 170232Z 09006KT 08/M04 A3014 RMK A01 T00811044  RH  041%=      5-min Rain = 0
KLO1 170233Z 09007KT 08/M04 A3014 RMK A01 T00801044  RH  041%=      5-min Rain = 0
KLO1 170234Z 09007KT 08/M04 A3014 RMK A01 T00811044  RH  041%=      5-min Rain = 0
KLO1 170235Z 09008KT 08/M04 A3014 RMK A01 T00811044  RH  041%=      5-min Rain = 0
KLO1 170236Z 09008KT 08/M04 A3014 RMK A01 T00811044  RH  041%=      5-min Rain = 0
KLO1 170237Z 09009KT 08/M04 A3014 RMK A01 T00801044  RH  041%=      5-min Rain = 0
KLO1 170238Z 09007KT 08/M04 A3014 RMK A01 T00801044  RH  041%=      5-min Rain = 0
KLO1 170239Z 09008KT 08/M04 A3014 RMK A01 T00801044  RH  041%=      5-min Rain = 0
KLO1 170240Z 08008KT 08/M04 A3014 RMK A01 T00801044  RH  041%=      5-min Rain = 0
KLO1 170241Z 08006KT 08/M04 A3014 RMK A01 T00801044  RH  041%=      5-min Rain = 0
KLO1 170242Z 08007KT 08/M04 A3014 RMK A01 T00801044  RH  041%=      5-min Rain = 0
KLO1 170243Z 08008KT 08/M04 A3014 RMK A01 T00791044  RH  041%=      5-min Rain = 0
KLO1 170244Z 09007KT 08/M04 A3014 RMK A01 T00791044  RH  041%=      5-min Rain = 0
KLO1 170245Z 08008KT 08/M04 A3014 RMK A01 T00791044  RH  041%=      5-min Rain = 0
KLO1 170246Z 09008KT 08/M04 A3014 RMK A01 T00791044  RH  041%=      5-min Rain = 0
KLO1 170247Z 08007KT 08/M04 A3014 RMK A01 T00791044  RH  041%=      5-min Rain = 0
KLO1 170248Z 09007KT 08/M04 A3014 RMK A01 T00791044  RH  041%=      5-min Rain = 0
KLO1 170249Z 09008KT 08/M04 A3014 RMK A01 T00791044  RH  041%=      5-min Rain = 0
KLO1 170250Z 09007KT 08/M04 A3014 RMK A01 T00791044  RH  041%=      5-min Rain = 0
KLO1 170251Z 09007KT 08/M04 A3014 RMK A01 T00791044  RH  041%=      5-min Rain = 0
KLO1 170252Z 09008KT 08/M04 A3014 RMK A01 T00791044  RH  042%=      5-min Rain = 0
KLO1 170253Z 09008KT 08/M04 A3014 RMK A01 T00791044  RH  042%=      5-min Rain = 0
KLO1 170254Z 09009KT 08/M04 A3014 RMK A01 T00791044  RH  042%=      5-min Rain = 0
KLO1 170255Z 09008KT 08/M04 A3014 RMK A01 T00781044  RH  042%=      5-min Rain = 0
KLO1 170256Z 08007KT 08/M04 A3014 RMK A01 T00781044  RH  042%=      5-min Rain = 0
KLO1 170257Z 09008KT 08/M04 A3013 RMK A01 T00781044  RH  042%=      5-min Rain = 0
KLO1 170258Z 08007KT 08/M04 A3013 RMK A01 T00781044  RH  042%=      5-min Rain = 0
KLO1 170259Z 09007KT 08/M04 A3013 RMK A01 T00771044  RH  042%=      5-min Rain = 0
KLO1 170300Z 09008KT 08/M04 A3013 RMK A01 T00771044  RH  042%=      5-min Rain = 0
KLO1 170301Z 08007KT 08/M04 A3013 RMK A01 T00771044  RH  042%=      5-min Rain = 0
KLO1 170302Z 09007KT 08/M04 A3013 RMK A01 T00771044  RH  042%=      5-min Rain = 0
KLO1 170303Z 09009KT 08/M04 A3013 RMK A01 T00761044  RH  042%=      5-min Rain = 0
KLO1 170304Z 09008KT 08/M04 A3013 RMK A01 T00761044  RH  042%=      5-min Rain = 0
KLO1 170305Z 09008KT 08/M04 A3013 RMK A01 T00761044  RH  042%=      5-min Rain = 0
KLO1 170306Z 09008KT 08/M04 A3013 RMK A01 T00761044  RH  042%=      5-min Rain = 0
KLO1 170307Z 09008KT 08/M04 A3013 RMK A01 T00761043  RH  042%=      5-min Rain = 0
KLO1 170308Z 09006KT 08/M04 A3013 RMK A01 T00761043  RH  042%=      5-min Rain = 0
KLO1 170309Z 09007KT 08/M04 A3013 RMK A01 T00761044  RH  042%=      5-min Rain = 0
KLO1 170310Z 09007KT 08/M04 A3013 RMK A01 T00751044  RH  043%=      5-min Rain = 0
KLO1 170311Z 09006KT 08/M04 A3013 RMK A01 T00751044  RH  043%=      5-min Rain = 0
KLO1 170312Z 08006KT 08/M04 A3013 RMK A01 T00751043  RH  043%=      5-min Rain = 0
KLO1 170313Z 08005KT 08/M04 A3013 RMK A01 T00751043  RH  043%=      5-min Rain = 0
KLO1 170314Z 07005KT 08/M04 A3013 RMK A01 T00751043  RH  043%=      5-min Rain = 0
KLO1 170315Z 07004KT 07/M04 A3013 RMK A01 T00741044  RH  043%=      5-min Rain = 0
KLO1 170316Z 07003KT 07/M04 A3013 RMK A01 T00741044  RH  043%=      5-min Rain = 0
KLO1 170317Z 07004KT 07/M04 A3013 RMK A01 T00741043  RH  043%=      5-min Rain = 0
KLO1 170318Z 07003KT 07/M04 A3013 RMK A01 T00741044  RH  043%=      5-min Rain = 0
KLO1 170319Z 07003KT 07/M04 A3013 RMK A01 T00741044  RH  043%=      5-min Rain = 0
KLO1 170320Z 07005KT 07/M04 A3013 RMK A01 T00741044  RH  043%=      5-min Rain = 0
KLO1 170321Z 07005KT 07/M04 A3013 RMK A01 T00741043  RH  043%=      5-min Rain = 0
KLO1 170322Z 08005KT 07/M04 A3013 RMK A01 T00741044  RH  043%=      5-min Rain = 0
KLO1 170323Z 08006KT 07/M04 A3013 RMK A01 T00741043  RH  043%=      5-min Rain = 0
KLO1 170324Z 08006KT 07/M04 A3013 RMK A01 T00741043  RH  043%=      5-min Rain = 0
KLO1 170325Z 08006KT 07/M04 A3013 RMK A01 T00741043  RH  043%=      5-min Rain = 0
KLO1 170326Z 08005KT 07/M04 A3013 RMK A01 T00741043  RH  043%=      5-min Rain = 0
KLO1 170327Z 08006KT 07/M04 A3013 RMK A01 T00731043  RH  043%=      5-min Rain = 0
KLO1 170328Z 08007KT 07/M04 A3012 RMK A01 T00741043  RH  043%=      5-min Rain = 0
KLO1 170329Z 08007KT 07/M04 A3012 RMK A01 T00741043  RH  043%=      5-min Rain = 0
KLO1 170330Z 09007KT 07/M04 A3012 RMK A01 T00741043  RH  043%=      5-min Rain = 0
KLO1 170331Z 09007KT 07/M04 A3012 RMK A01 T00731044  RH  043%=      5-min Rain = 0
KLO1 170332Z 09007KT 07/M04 A3012 RMK A01 T00731044  RH  043%=      5-min Rain = 0
KLO1 170333Z 09008KT 07/M04 A3012 RMK A01 T00731044  RH  043%=      5-min Rain = 0
KLO1 170334Z 09006KT 07/M04 A3012 RMK A01 T00731044  RH  043%=      5-min Rain = 0
KLO1 170335Z 09008KT 07/M04 A3012 RMK A01 T00741044  RH  043%=      5-min Rain = 0
KLO1 170336Z 09007KT 07/M04 A3012 RMK A01 T00741044  RH  043%=      5-min Rain = 0
KLO1 170337Z 09008KT 07/M04 A3012 RMK A01 T00741044  RH  043%=      5-min Rain = 0
KLO1 170338Z 08007KT 07/M04 A3012 RMK A01 T00741044  RH  043%=      5-min Rain = 0
KLO1 170339Z 09007KT 07/M04 A3012 RMK A01 T00741044  RH  043%=      5-min Rain = 0
KLO1 170340Z 09006KT 07/M04 A3012 RMK A01 T00741044  RH  043%=      5-min Rain = 0
KLO1 170341Z 08005KT 07/M04 A3012 RMK A01 T00741044  RH  043%=      5-min Rain = 0
KLO1 170342Z 08006KT 07/M04 A3012 RMK A01 T00731044  RH  043%=      5-min Rain = 0
KLO1 170343Z 07004KT 07/M04 A3012 RMK A01 T00731044  RH  043%=      5-min Rain = 0
KLO1 170344Z 07004KT 07/M04 A3012 RMK A01 T00731044  RH  043%=      5-min Rain = 0
KLO1 170345Z 06003KT 07/M04 A3012 RMK A01 T00731044  RH  043%=      5-min Rain = 0
KLO1 170346Z 05003KT 07/M04 A3012 RMK A01 T00731044  RH  043%=      5-min Rain = 0
KLO1 170347Z 05003KT 07/M04 A3012 RMK A01 T00721044  RH  043%=      5-min Rain = 0
KLO1 170348Z 05004KT 07/M04 A3013 RMK A01 T00721044  RH  043%=      5-min Rain = 0
KLO1 170349Z 04004KT 07/M04 A3013 RMK A01 T00721044  RH  043%=      5-min Rain = 0
KLO1 170350Z 04003KT 07/M04 A3013 RMK A01 T00721044  RH  043%=      5-min Rain = 0
KLO1 170351Z 04003KT 07/M04 A3013 RMK A01 T00721044  RH  043%=      5-min Rain = 0
KLO1 170352Z 05004KT 07/M04 A3013 RMK A01 T00721044  RH  043%=      5-min Rain = 0
KLO1 170353Z 06004KT 07/M04 A3013 RMK A01 T00711044  RH  044%=      5-min Rain = 0
KLO1 170354Z 06004KT 07/M04 A3013 RMK A01 T00711044  RH  044%=      5-min Rain = 0
KLO1 170355Z 06004KT 07/M04 A3013 RMK A01 T00711044  RH  044%=      5-min Rain = 0
KLO1 170356Z 06004KT 07/M05 A3013 RMK A01 T00711045  RH  044%=      5-min Rain = 0
KLO1 170357Z 06004KT 07/M05 A3013 RMK A01 T00711045  RH  044%=      5-min Rain = 0
KLO1 170358Z 06004KT 07/M04 A3013 RMK A01 T00711044  RH  044%=      5-min Rain = 0
KLO1 170359Z 05004KT 07/M04 A3013 RMK A01 T00711044  RH  044%=      5-min Rain = 0
KLO1 170400Z 06004KT 07/M05 A3013 RMK A01 T00701045  RH  044%=      5-min Rain = 0
KLO1 170401Z 07004KT 07/M05 A3013 RMK A01 T00701045  RH  044%=      5-min Rain = 0
KLO1 170402Z 06004KT 07/M04 A3013 RMK A01 T00711044  RH  044%=      5-min Rain = 0
KLO1 170403Z 06005KT 07/M05 A3013 RMK A01 T00701045  RH  044%=      5-min Rain = 0
KLO1 170404Z 06004KT 07/M05 A3013 RMK A01 T00701045  RH  044%=      5-min Rain = 0
KLO1 170405Z 07005KT 07/M05 A3013 RMK A01 T00701045  RH  044%=      5-min Rain = 0
KLO1 170406Z 07005KT 07/M05 A3012 RMK A01 T00701045  RH  044%=      5-min Rain = 0
KLO1 170407Z 07005KT 07/M05 A3012 RMK A01 T00701046  RH  044%=      5-min Rain = 0
KLO1 170408Z 07005KT 07/M05 A3012 RMK A01 T00701045  RH  044%=      5-min Rain = 0
KLO1 170409Z 07005KT 07/M05 A3012 RMK A01 T00701046  RH  044%=      5-min Rain = 0
KLO1 170410Z 07005KT 07/M05 A3012 RMK A01 T00701045  RH  044%=      5-min Rain = 0
KLO1 170411Z 07005KT 07/M05 A3012 RMK A01 T00701046  RH  044%=      5-min Rain = 0
KLO1 170412Z 07005KT 07/M05 A3012 RMK A01 T00701046  RH  043%=      5-min Rain = 0
KLO1 170413Z 07004KT 07/M05 A3012 RMK A01 T00701046  RH  043%=      5-min Rain = 0
KLO1 170414Z 07004KT 07/M05 A3012 RMK A01 T00701046  RH  043%=      5-min Rain = 0
KLO1 170415Z 07004KT 07/M05 A3012 RMK A01 T00701046  RH  043%=      5-min Rain = 0
KLO1 170416Z 06005KT 07/M05 A3012 RMK A01 T00701046  RH  043%=      5-min Rain = 0
KLO1 170417Z 06005KT 07/M05 A3012 RMK A01 T00691046  RH  043%=      5-min Rain = 0
KLO1 170418Z 06005KT 07/M05 A3012 RMK A01 T00691046  RH  043%=      5-min Rain = 0
KLO1 170419Z 05005KT 07/M05 A3012 RMK A01 T00701046  RH  044%=      5-min Rain = 0
KLO1 170420Z 05005KT 07/M05 A3013 RMK A01 T00691046  RH  044%=      5-min Rain = 0
KLO1 170421Z 05005KT 07/M05 A3013 RMK A01 T00691047  RH  044%=      5-min Rain = 0
KLO1 170422Z 05005KT 07/M05 A3013 RMK A01 T00691046  RH  044%=      5-min Rain = 0
KLO1 170423Z 05005KT 07/M05 A3013 RMK A01 T00691046  RH  044%=      5-min Rain = 0
KLO1 170424Z 04005KT 07/M05 A3013 RMK A01 T00691046  RH  044%=      5-min Rain = 0
KLO1 170425Z 04004KT 07/M05 A3013 RMK A01 T00691046  RH  044%=      5-min Rain = 0
KLO1 170426Z 04004KT 07/M05 A3013 RMK A01 T00691046  RH  044%=      5-min Rain = 0
KLO1 170427Z 04005KT 07/M05 A3013 RMK A01 T00681047  RH  044%=      5-min Rain = 0
KLO1 170428Z 04005KT 07/M05 A3013 RMK A01 T00681046  RH  044%=      5-min Rain = 0
KLO1 170429Z 04005KT 07/M05 A3013 RMK A01 T00681046  RH  044%=      5-min Rain = 0
KLO1 170430Z 03005KT 07/M05 A3013 RMK A01 T00681047  RH  044%=      5-min Rain = 0
KLO1 170431Z 03005KT 07/M05 A3013 RMK A01 T00671047  RH  044%=      5-min Rain = 0
KLO1 170432Z 03005KT 07/M05 A3013 RMK A01 T00671047  RH  044%=      5-min Rain = 0
KLO1 170433Z 03004KT 07/M05 A3013 RMK A01 T00671047  RH  044%=      5-min Rain = 0
KLO1 170434Z 03005KT 07/M05 A3013 RMK A01 T00671047  RH  044%=      5-min Rain = 0
KLO1 170435Z 03005KT 07/M05 A3013 RMK A01 T00671047  RH  044%=      5-min Rain = 0
KLO1 170436Z 03005KT 07/M05 A3013 RMK A01 T00671047  RH  044%=      5-min Rain = 0
KLO1 170437Z 03005KT 07/M05 A3013 RMK A01 T00671047  RH  044%=      5-min Rain = 0
KLO1 170438Z 03005KT 07/M05 A3013 RMK A01 T00671047  RH  044%=      5-min Rain = 0
KLO1 170439Z 03005KT 07/M05 A3013 RMK A01 T00661047  RH  044%=      5-min Rain = 0
KLO1 170440Z 03005KT 07/M05 A3013 RMK A01 T00661047  RH  044%=      5-min Rain = 0
KLO1 170441Z 04005KT 07/M05 A3013 RMK A01 T00661047  RH  044%=      5-min Rain = 0
KLO1 170442Z 03004KT 07/M05 A3013 RMK A01 T00661047  RH  044%=      5-min Rain = 0
KLO1 170443Z 03004KT 07/M05 A3013 RMK A01 T00661047  RH  044%=      5-min Rain = 0
KLO1 170444Z 03004KT 07/M05 A3013 RMK A01 T00661047  RH  044%=      5-min Rain = 0
KLO1 170445Z 03004KT 07/M05 A3013 RMK A01 T00661047  RH  044%=      5-min Rain = 0
KLO1 170446Z 03005KT 07/M05 A3013 RMK A01 T00661047  RH  044%=      5-min Rain = 0
KLO1 170447Z 03004KT 07/M05 A3013 RMK A01 T00661047  RH  044%=      5-min Rain = 0
KLO1 170448Z 03005KT 07/M05 A3013 RMK A01 T00661046  RH  044%=      5-min Rain = 0
KLO1 170449Z 04005KT 07/M05 A3013 RMK A01 T00661047  RH  044%=      5-min Rain = 0
KLO1 170450Z 03005KT 07/M05 A3013 RMK A01 T00661047  RH  044%=      5-min Rain = 0
KLO1 170451Z 04006KT 07/M05 A3013 RMK A01 T00671046  RH  044%=      5-min Rain = 0
KLO1 170452Z 03006KT 07/M05 A3013 RMK A01 T00671046  RH  044%=      5-min Rain = 0
KLO1 170453Z 03005KT 07/M05 A3014 RMK A01 T00671046  RH  044%=      5-min Rain = 0
KLO1 170454Z 03005KT 07/M05 A3014 RMK A01 T00671046  RH  044%=      5-min Rain = 0
KLO1 170455Z 03005KT 07/M05 A3014 RMK A01 T00671046  RH  044%=      5-min Rain = 0
KLO1 170456Z 03005KT 07/M05 A3014 RMK A01 T00671046  RH  044%=      5-min Rain = 0
KLO1 170457Z 03005KT 07/M05 A3014 RMK A01 T00671047  RH  044%=      5-min Rain = 0
KLO1 170458Z 03006KT 07/M05 A3013 RMK A01 T00671046  RH  044%=      5-min Rain = 0
KLO1 170459Z 03006KT 07/M05 A3013 RMK A01 T00681047  RH  044%=      5-min Rain = 0
KLO1 170500Z 03005KT 07/M05 A3013 RMK A01 T00681047  RH  044%=      5-min Rain = 0
KLO1 170501Z 03005KT 07/M05 A3013 RMK A01 T00681047  RH  044%=      5-min Rain = 0
KLO1 170502Z 03005KT 07/M05 A3013 RMK A01 T00681047  RH  044%=      5-min Rain = 0
KLO1 170503Z 03005KT 07/M05 A3013 RMK A01 T00681047  RH  044%=      5-min Rain = 0
KLO1 170504Z 03005KT 07/M05 A3013 RMK A01 T00681047  RH  044%=      5-min Rain = 0
KLO1 170505Z 04005KT 07/M05 A3013 RMK A01 T00681047  RH  044%=      5-min Rain = 0
KLO1 170506Z 03005KT 07/M05 A3013 RMK A01 T00671047  RH  044%=      5-min Rain = 0
KLO1 170507Z 04005KT 07/M05 A3013 RMK A01 T00671048  RH  044%=      5-min Rain = 0
KLO1 170508Z 04005KT 07/M05 A3013 RMK A01 T00671047  RH  044%=      5-min Rain = 0
KLO1 170509Z 04006KT 07/M05 A3013 RMK A01 T00671047  RH  044%=      5-min Rain = 0
KLO1 170510Z 04006KT 07/M05 A3013 RMK A01 T00671047  RH  044%=      5-min Rain = 0
KLO1 170511Z 04005KT 07/M05 A3013 RMK A01 T00671047  RH  044%=      5-min Rain = 0
KLO1 170512Z 05005KT 07/M05 A3013 RMK A01 T00671047  RH  044%=      5-min Rain = 0
KLO1 170513Z 05005KT 07/M05 A3013 RMK A01 T00671047  RH  044%=      5-min Rain = 0
KLO1 170514Z 05005KT 07/M05 A3013 RMK A01 T00671047  RH  044%=      5-min Rain = 0
KLO1 170515Z 04005KT 07/M05 A3013 RMK A01 T00671048  RH  044%=      5-min Rain = 0
KLO1 170516Z 04006KT 07/M05 A3013 RMK A01 T00671048  RH  044%=      5-min Rain = 0
KLO1 170517Z 04006KT 07/M05 A3013 RMK A01 T00671048  RH  044%=      5-min Rain = 0
KLO1 170518Z 05006KT 07/M05 A3013 RMK A01 T00671048  RH  044%=      5-min Rain = 0
KLO1 170519Z 05006KT 07/M05 A3013 RMK A01 T00681048  RH  043%=      5-min Rain = 0
KLO1 170520Z 04005KT 07/M05 A3013 RMK A01 T00681048  RH  043%=      5-min Rain = 0
KLO1 170521Z 05005KT 07/M05 A3013 RMK A01 T00681048  RH  043%=      5-min Rain = 0
KLO1 170522Z 05004KT 07/M05 A3013 RMK A01 T00681047  RH  043%=      5-min Rain = 0
KLO1 170523Z 04005KT 07/M05 A3013 RMK A01 T00691047  RH  043%=      5-min Rain = 0
KLO1 170524Z 05004KT 07/M05 A3013 RMK A01 T00681048  RH  043%=      5-min Rain = 0
KLO1 170525Z 05004KT 07/M05 A3013 RMK A01 T00691047  RH  043%=      5-min Rain = 0
KLO1 170526Z 05004KT 07/M05 A3013 RMK A01 T00691047  RH  043%=      5-min Rain = 0
KLO1 170527Z 04005KT 07/M05 A3012 RMK A01 T00681048  RH  043%=      5-min Rain = 0
KLO1 170528Z 04005KT 07/M05 A3012 RMK A01 T00681048  RH  043%=      5-min Rain = 0
KLO1 170529Z 04005KT 07/M05 A3012 RMK A01 T00691048  RH  043%=      5-min Rain = 0
KLO1 170530Z 04006KT 07/M05 A3012 RMK A01 T00691048  RH  043%=      5-min Rain = 0
KLO1 170531Z 04005KT 07/M05 A3012 RMK A01 T00691048  RH  043%=      5-min Rain = 0
KLO1 170532Z 04006KT 07/M05 A3013 RMK A01 T00691048  RH  043%=      5-min Rain = 0
KLO1 170533Z 02007KT 07/M05 A3013 RMK A01 T00691048  RH  043%=      5-min Rain = 0
KLO1 170534Z 03007KT 07/M05 A3013 RMK A01 T00681048  RH  043%=      5-min Rain = 0
KLO1 170535Z 03007KT 07/M05 A3013 RMK A01 T00691048  RH  043%=      5-min Rain = 0
KLO1 170536Z 03007KT 07/M05 A3013 RMK A01 T00691048  RH  043%=      5-min Rain = 0
KLO1 170537Z 03006KT 07/M05 A3013 RMK A01 T00691048  RH  043%=      5-min Rain = 0
KLO1 170538Z 03008KT 07/M05 A3013 RMK A01 T00691048  RH  043%=      5-min Rain = 0
KLO1 170539Z 03008KT 07/M05 A3013 RMK A01 T00691049  RH  043%=      5-min Rain = 0
KLO1 170540Z 03007KT 07/M05 A3014 RMK A01 T00681049  RH  043%=      5-min Rain = 0
KLO1 170541Z 02006KT 07/M05 A3014 RMK A01 T00681049  RH  043%=      5-min Rain = 0
KLO1 170542Z 02008KT 07/M05 A3014 RMK A01 T00681048  RH  043%=      5-min Rain = 0
KLO1 170543Z 03007KT 07/M05 A3014 RMK A01 T00681049  RH  043%=      5-min Rain = 0
KLO1 170544Z 03007KT 07/M05 A3014 RMK A01 T00681049  RH  043%=      5-min Rain = 0
KLO1 170545Z 02006KT 07/M05 A3014 RMK A01 T00681049  RH  043%=      5-min Rain = 0
KLO1 170546Z 02007KT 07/M05 A3014 RMK A01 T00691048  RH  043%=      5-min Rain = 0
KLO1 170547Z 01006KT 07/M05 A3015 RMK A01 T00691049  RH  043%=      5-min Rain = 0
KLO1 170548Z 00005KT 07/M05 A3015 RMK A01 T00691049  RH  043%=      5-min Rain = 0
KLO1 170549Z 36006KT 07/M05 A3015 RMK A01 T00691049  RH  043%=      5-min Rain = 0
KLO1 170550Z 35006KT 07/M05 A3016 RMK A01 T00691049  RH  043%=      5-min Rain = 0
KLO1 170551Z 34007KT 07/M05 A3016 RMK A01 T00691049  RH  043%=      5-min Rain = 0
KLO1 170552Z 34010KT 07/M05 A3017 RMK A01 T00691049  RH  043%=      5-min Rain = 0
KLO1 170553Z 34010KT 07/M05 A3017 RMK A01 T00691049  RH  043%=      5-min Rain = 0
KLO1 170554Z 33011KT 07/M05 A3017 RMK A01 T00691049  RH  043%=      5-min Rain = 0
KLO1 170555Z 33012KT 07/M05 A3018 RMK A01 T00701049  RH  043%=      5-min Rain = 0
KLO1 170556Z 32014KT 07/M05 A3019 RMK A01 T00701049  RH  042%=      5-min Rain = 0
KLO1 170557Z 32015KT 07/M05 A3019 RMK A01 T00711049  RH  042%=      5-min Rain = 0
KLO1 170558Z 32018KT 07/M05 A302 RMK A01 T00711049  RH  042%=      5-min Rain = 0
KLO1 170559Z 32018KT 07/M05 A302 RMK A01 T00711049  RH  042%=      5-min Rain = 0

Page generated in 0.0716 seconds.